Time,TemperatureF,DewpointF,PressureIn,WindDirection,WindDirectionDegrees,WindSpeedMPH,WindSpeedGustMPH,Humidity,HourlyPrecipIn,Conditions,Clouds,dailyrainin,SoftwareType,DateUTC
2013-06-15 00:01:00,58.0,46.7,29.96,SSE,159,0.0,5.0,66,0.00,,,0.00,Wunderground v.1.15,2013-06-15 05:01:00,
2013-06-15 00:03:00,57.8,45.3,29.96,SSE,159,0.0,0.0,63,0.00,,,0.00,Wunderground v.1.15,2013-06-15 05:03:00,
2013-06-15 00:05:00,57.7,46.4,29.96,SSE,159,0.0,0.0,66,0.00,,,0.00,Wunderground v.1.15,2013-06-15 05:05:00,
2013-06-15 00:10:00,57.4,45.7,29.95,SSE,159,0.0,0.0,65,0.00,,,0.00,Wunderground v.1.15,2013-06-15 05:10:00,
2013-06-15 00:11:00,57.3,46.0,29.95,SSE,159,0.0,0.0,66,0.00,,,0.00,Wunderground v.1.15,2013-06-15 05:11:00,
2013-06-15 00:12:00,57.3,46.0,29.95,SSE,159,0.0,0.0,66,0.00,,,0.00,Wunderground v.1.15,2013-06-15 05:12:00,
2013-06-15 00:13:00,57.2,45.9,29.95,SSE,159,0.0,0.0,66,0.00,,,0.00,Wunderground v.1.15,2013-06-15 05:13:00,
2013-06-15 00:16:00,57.1,45.8,29.94,SSE,159,0.0,0.0,66,0.00,,,0.00,Wunderground v.1.15,2013-06-15 05:16:00,
2013-06-15 00:17:00,57.0,45.7,29.94,SSE,159,0.0,0.0,66,0.00,,,0.00,Wunderground v.1.15,2013-06-15 05:17:00,
2013-06-15 00:18:00,56.9,46.1,29.94,SSE,159,0.0,0.0,67,0.00,,,0.00,Wunderground v.1.15,2013-06-15 05:18:00,
2013-06-15 00:21:00,56.8,46.7,29.94,SSE,159,0.0,0.0,69,0.00,,,0.00,Wunderground v.1.15,2013-06-15 05:21:00,
2013-06-15 00:22:00,56.7,46.3,29.94,SSE,159,0.0,0.0,68,0.00,,,0.00,Wunderground v.1.15,2013-06-15 05:22:00,
2013-06-15 00:23:00,56.6,46.2,29.94,SSE,159,0.0,0.0,68,0.00,,,0.00,Wunderground v.1.15,2013-06-15 05:23:00,
2013-06-15 00:26:00,56.4,46.0,29.95,SSE,159,0.0,0.0,68,0.00,,,0.00,Wunderground v.1.15,2013-06-15 05:26:00,
2013-06-15 00:30:00,56.1,46.1,29.95,SSE,159,0.0,0.0,69,0.00,,,0.00,Wunderground v.1.15,2013-06-15 05:30:00,
2013-06-15 00:35:00,55.6,47.4,29.95,SSE,159,0.0,0.0,74,0.00,,,0.00,Wunderground v.1.15,2013-06-15 05:35:00,
2013-06-15 00:36:00,55.5,47.0,29.95,SSE,159,0.0,0.0,73,0.00,,,0.00,Wunderground v.1.15,2013-06-15 05:36:00,
2013-06-15 00:37:00,55.4,46.5,29.95,SSE,159,0.0,0.0,72,0.00,,,0.00,Wunderground v.1.15,2013-06-15 05:37:00,
2013-06-15 00:38:00,55.3,46.1,29.96,SSE,159,0.0,0.0,71,0.00,,,0.00,Wunderground v.1.15,2013-06-15 05:38:00,
2013-06-15 00:43:00,55.0,45.4,29.97,SSE,159,0.0,0.0,70,0.00,,,0.00,Wunderground v.1.15,2013-06-15 05:43:00,
2013-06-15 00:45:00,55.1,45.5,29.97,SSE,159,0.0,0.0,70,0.00,,,0.00,Wunderground v.1.15,2013-06-15 05:45:00,
2013-06-15 00:47:00,55.2,46.0,29.97,SSE,159,0.0,0.0,71,0.00,,,0.00,Wunderground v.1.15,2013-06-15 05:47:00,
2013-06-15 00:48:00,55.2,46.0,29.97,SSE,159,0.0,0.0,71,0.00,,,0.00,Wunderground v.1.15,2013-06-15 05:48:00,
2013-06-15 00:50:00,55.3,47.5,29.97,SSE,159,0.0,0.0,75,0.00,,,0.00,Wunderground v.1.15,2013-06-15 05:50:00,
2013-06-15 00:52:00,55.4,46.9,29.97,SSE,159,0.0,0.0,73,0.00,,,0.00,Wunderground v.1.15,2013-06-15 05:52:00,
2013-06-15 00:54:00,55.4,46.9,29.97,SSE,159,0.0,0.0,73,0.00,,,0.00,Wunderground v.1.15,2013-06-15 05:54:00,
2013-06-15 00:55:00,55.4,47.2,29.97,SSE,159,0.0,0.0,74,0.00,,,0.00,Wunderground v.1.15,2013-06-15 05:55:00,
2013-06-15 01:00:00,55.6,45.2,29.97,SSE,157,0.0,1.0,68,0.00,,,0.00,Wunderground v.1.15,2013-06-15 06:00:00,
2013-06-15 01:01:00,55.6,44.8,29.97,SSE,157,0.0,1.0,67,0.00,,,0.00,Wunderground v.1.15,2013-06-15 06:01:00,
2013-06-15 01:02:00,55.7,44.5,29.97,SSE,157,0.0,0.0,66,0.00,,,0.00,Wunderground v.1.15,2013-06-15 06:02:00,
2013-06-15 01:06:00,55.9,45.1,29.97,SSE,157,0.0,0.0,67,0.00,,,0.00,Wunderground v.1.15,2013-06-15 06:06:00,
2013-06-15 01:07:00,55.9,44.3,29.97,SSE,157,0.0,0.0,65,0.00,,,0.00,Wunderground v.1.15,2013-06-15 06:07:00,
2013-06-15 01:12:00,56.0,44.0,29.96,SSE,158,0.0,0.0,64,0.00,,,0.00,Wunderground v.1.15,2013-06-15 06:12:00,
2013-06-15 01:13:00,55.9,43.9,29.96,SSE,158,0.0,0.0,64,0.00,,,0.00,Wunderground v.1.15,2013-06-15 06:13:00,
2013-06-15 01:15:00,55.9,43.9,29.96,SSE,158,0.0,0.0,64,0.00,,,0.00,Wunderground v.1.15,2013-06-15 06:15:00,
2013-06-15 01:16:00,55.9,44.3,29.96,SSE,158,0.0,0.0,65,0.00,,,0.00,Wunderground v.1.15,2013-06-15 06:16:00,
2013-06-15 01:18:00,55.9,44.3,29.97,SSE,158,0.0,0.0,65,0.00,,,0.00,Wunderground v.1.15,2013-06-15 06:18:00,
2013-06-15 01:21:00,55.8,43.8,29.97,SSE,158,0.0,0.0,64,0.00,,,0.00,Wunderground v.1.15,2013-06-15 06:21:00,
2013-06-15 01:25:00,55.6,44.4,29.96,SSE,158,0.0,0.0,66,0.00,,,0.00,Wunderground v.1.15,2013-06-15 06:25:00,
2013-06-15 01:26:00,55.6,43.6,29.96,SSE,158,0.0,0.0,64,0.00,,,0.00,Wunderground v.1.15,2013-06-15 06:26:00,
2013-06-15 01:28:00,55.5,43.9,29.95,SSE,158,0.0,0.0,65,0.00,,,0.00,Wunderground v.1.15,2013-06-15 06:28:00,
2013-06-15 01:30:00,55.4,44.2,29.95,SSE,158,0.0,0.0,66,0.00,,,0.00,Wunderground v.1.15,2013-06-15 06:30:00,
2013-06-15 01:33:00,55.2,44.8,29.95,SSE,158,0.0,0.0,68,0.00,,,0.00,Wunderground v.1.15,2013-06-15 06:33:00,
2013-06-15 01:37:00,55.0,44.6,29.94,SSE,158,0.0,0.0,68,0.00,,,0.00,Wunderground v.1.15,2013-06-15 06:37:00,
2013-06-15 01:38:00,55.0,44.6,29.94,SSE,158,0.0,0.0,68,0.00,,,0.00,Wunderground v.1.15,2013-06-15 06:38:00,
2013-06-15 01:41:00,54.9,44.9,29.94,SSE,158,0.0,0.0,69,0.00,,,0.00,Wunderground v.1.15,2013-06-15 06:41:00,
2013-06-15 01:45:00,54.7,44.3,29.95,SSE,158,0.0,0.0,68,0.00,,,0.00,Wunderground v.1.15,2013-06-15 06:45:00,
2013-06-15 01:46:00,54.6,44.6,29.95,SSE,158,0.0,0.0,69,0.00,,,0.00,Wunderground v.1.15,2013-06-15 06:46:00,
2013-06-15 01:50:00,54.5,44.5,29.96,SSE,158,0.0,0.0,69,0.00,,,0.00,Wunderground v.1.15,2013-06-15 06:50:00,
2013-06-15 01:51:00,54.5,44.5,29.96,SSE,158,0.0,0.0,69,0.00,,,0.00,Wunderground v.1.15,2013-06-15 06:51:00,
2013-06-15 01:52:00,54.4,44.4,29.96,SSE,158,0.0,0.0,69,0.00,,,0.00,Wunderground v.1.15,2013-06-15 06:52:00,
2013-06-15 01:53:00,54.4,44.4,29.96,SSE,158,0.0,0.0,69,0.00,,,0.00,Wunderground v.1.15,2013-06-15 06:53:00,
2013-06-15 01:56:00,54.4,44.8,29.96,SSE,158,0.0,0.0,70,0.00,,,0.00,Wunderground v.1.15,2013-06-15 06:56:00,
2013-06-15 01:57:00,54.4,45.2,29.96,SSE,158,0.0,0.0,71,0.00,,,0.00,Wunderground v.1.15,2013-06-15 06:57:00,
2013-06-15 02:00:00,54.4,46.6,29.96,SSE,158,0.0,0.0,75,0.00,,,0.00,Wunderground v.1.15,2013-06-15 07:00:00,
2013-06-15 02:01:00,54.4,46.6,29.96,SSE,158,0.0,0.0,75,0.00,,,0.00,Wunderground v.1.15,2013-06-15 07:01:00,
2013-06-15 02:04:00,54.4,45.6,29.96,SSE,158,0.0,0.0,72,0.00,,,0.00,Wunderground v.1.15,2013-06-15 07:04:00,
2013-06-15 02:06:00,54.5,46.0,29.96,SSE,158,0.0,0.0,73,0.00,,,0.00,Wunderground v.1.15,2013-06-15 07:06:00,
2013-06-15 02:07:00,54.5,46.0,29.96,SSE,158,0.0,0.0,73,0.00,,,0.00,Wunderground v.1.15,2013-06-15 07:07:00,
2013-06-15 02:10:00,54.5,45.7,29.96,SSW,202,0.0,2.0,72,0.00,,,0.00,Wunderground v.1.15,2013-06-15 07:10:00,
2013-06-15 02:12:00,54.6,45.4,29.96,SSW,202,0.0,0.0,71,0.00,,,0.00,Wunderground v.1.15,2013-06-15 07:12:00,
2013-06-15 02:14:00,54.6,45.8,29.95,SSW,202,0.0,0.0,72,0.00,,,0.00,Wunderground v.1.15,2013-06-15 07:14:00,
2013-06-15 02:16:00,54.7,45.8,29.95,SSW,202,0.0,0.0,72,0.00,,,0.00,Wunderground v.1.15,2013-06-15 07:16:00,
2013-06-15 02:18:00,54.7,45.8,29.95,SSW,202,0.0,0.0,72,0.00,,,0.00,Wunderground v.1.15,2013-06-15 07:18:00,
2013-06-15 02:19:00,54.7,45.8,29.95,SSW,202,0.0,0.0,72,0.00,,,0.00,Wunderground v.1.15,2013-06-15 07:19:00,
2013-06-15 02:21:00,54.8,46.3,29.95,SSW,202,0.0,0.0,73,0.00,,,0.00,Wunderground v.1.15,2013-06-15 07:21:00,
2013-06-15 02:22:00,54.8,46.3,29.95,SSW,202,0.0,0.0,73,0.00,,,0.00,Wunderground v.1.15,2013-06-15 07:22:00,
2013-06-15 02:24:00,54.8,46.3,29.95,SSW,202,0.0,0.0,73,0.00,,,0.00,Wunderground v.1.15,2013-06-15 07:24:00,
2013-06-15 02:26:00,54.8,45.6,29.95,SSW,202,0.0,0.0,71,0.00,,,0.00,Wunderground v.1.15,2013-06-15 07:26:00,
2013-06-15 02:27:00,54.8,45.9,29.96,SSW,202,0.0,0.0,72,0.00,,,0.00,Wunderground v.1.15,2013-06-15 07:27:00,
2013-06-15 02:28:00,54.8,45.6,29.95,SSW,202,0.0,1.0,71,0.00,,,0.00,Wunderground v.1.15,2013-06-15 07:28:00,
2013-06-15 02:29:00,54.9,45.3,29.95,SSW,202,0.0,1.0,70,0.00,,,0.00,Wunderground v.1.15,2013-06-15 07:29:00,
2013-06-15 02:32:00,55.0,46.1,29.96,SSW,202,0.0,0.0,72,0.00,,,0.00,Wunderground v.1.15,2013-06-15 07:32:00,
2013-06-15 02:33:00,55.0,46.5,29.96,SSW,202,0.0,0.0,73,0.00,,,0.00,Wunderground v.1.15,2013-06-15 07:33:00,
2013-06-15 02:35:00,55.0,46.5,29.96,SSW,200,0.0,1.0,73,0.00,,,0.00,Wunderground v.1.15,2013-06-15 07:35:00,
2013-06-15 02:36:00,55.1,46.6,29.96,SSW,200,0.0,1.0,73,0.00,,,0.00,Wunderground v.1.15,2013-06-15 07:36:00,
2013-06-15 02:37:00,55.1,46.2,29.96,SSW,200,0.0,1.0,72,0.00,,,0.00,Wunderground v.1.15,2013-06-15 07:37:00,
2013-06-15 02:41:00,55.1,46.2,29.96,SSW,200,0.0,1.0,72,0.00,,,0.00,Wunderground v.1.15,2013-06-15 07:41:00,
2013-06-15 02:42:00,55.2,47.4,29.96,SSW,200,0.0,0.0,75,0.00,,,0.00,Wunderground v.1.15,2013-06-15 07:42:00,
2013-06-15 02:43:00,55.1,47.0,29.96,SSW,200,0.0,0.0,74,0.00,,,0.00,Wunderground v.1.15,2013-06-15 07:43:00,
2013-06-15 02:46:00,55.2,47.1,29.96,SE,145,0.0,0.0,74,0.00,,,0.00,Wunderground v.1.15,2013-06-15 07:46:00,
2013-06-15 02:48:00,55.2,46.7,29.96,SE,145,0.0,0.0,73,0.00,,,0.00,Wunderground v.1.15,2013-06-15 07:48:00,
2013-06-15 02:49:00,55.3,46.8,29.96,SE,145,0.0,0.0,73,0.00,,,0.00,Wunderground v.1.15,2013-06-15 07:49:00,
2013-06-15 02:50:00,55.3,47.2,29.96,SE,145,0.0,0.0,74,0.00,,,0.00,Wunderground v.1.15,2013-06-15 07:50:00,
2013-06-15 02:51:00,55.3,46.8,29.96,SE,145,0.0,0.0,73,0.00,,,0.00,Wunderground v.1.15,2013-06-15 07:51:00,
2013-06-15 02:52:00,55.4,46.5,29.96,SE,145,0.0,0.0,72,0.00,,,0.00,Wunderground v.1.15,2013-06-15 07:52:00,
2013-06-15 02:55:00,55.4,46.2,29.96,SE,145,0.0,0.0,71,0.00,,,0.00,Wunderground v.1.15,2013-06-15 07:55:00,
2013-06-15 02:56:00,55.4,46.2,29.96,SE,145,0.0,0.0,71,0.00,,,0.00,Wunderground v.1.15,2013-06-15 07:56:00,
2013-06-15 02:57:00,55.4,46.5,29.96,SE,145,0.0,0.0,72,0.00,,,0.00,Wunderground v.1.15,2013-06-15 07:57:00,
2013-06-15 02:58:00,55.5,47.0,29.96,East,101,0.0,3.0,73,0.00,,,0.00,Wunderground v.1.15,2013-06-15 07:58:00,
2013-06-15 03:00:00,55.0,46.1,29.97,SSW,202,0.0,3.0,72,0.00,,,-99.99,WeatherLink 5.9.3,2013-06-15 08:00:00,
2013-06-15 03:01:00,55.6,46.7,29.97,East,101,0.0,3.0,72,0.00,,,0.00,Wunderground v.1.15,2013-06-15 08:01:00,
2013-06-15 03:02:00,55.6,46.7,29.97,East,101,0.0,0.0,72,0.00,,,0.00,Wunderground v.1.15,2013-06-15 08:02:00,
2013-06-15 03:03:00,55.7,46.8,29.97,East,101,0.0,0.0,72,0.00,,,0.00,Wunderground v.1.15,2013-06-15 08:03:00,
2013-06-15 03:06:00,55.7,46.4,29.97,East,101,0.0,0.0,71,0.00,,,0.00,Wunderground v.1.15,2013-06-15 08:06:00,
2013-06-15 03:07:00,55.8,46.2,29.96,East,101,0.0,2.0,70,0.00,,,0.00,Wunderground v.1.15,2013-06-15 08:07:00,
2013-06-15 03:08:00,55.8,45.8,29.96,East,101,0.0,2.0,69,0.00,,,0.00,Wunderground v.1.15,2013-06-15 08:08:00,
2013-06-15 03:09:00,55.9,45.9,29.96,East,101,0.0,2.0,69,0.00,,,0.00,Wunderground v.1.15,2013-06-15 08:09:00,
2013-06-15 03:13:00,56.0,46.4,29.96,East,101,0.0,0.0,70,0.00,,,0.00,Wunderground v.1.15,2013-06-15 08:13:00,
2013-06-15 03:14:00,56.0,46.4,29.96,East,101,0.0,0.0,70,0.00,,,0.00,Wunderground v.1.15,2013-06-15 08:14:00,
2013-06-15 03:16:00,56.1,45.3,29.96,SSE,149,0.0,0.0,67,0.00,,,0.00,Wunderground v.1.15,2013-06-15 08:16:00,
2013-06-15 03:18:00,56.2,45.8,29.96,SSE,149,0.0,0.0,68,0.00,,,0.00,Wunderground v.1.15,2013-06-15 08:18:00,
2013-06-15 03:19:00,56.2,45.8,29.96,SSE,149,0.0,0.0,68,0.00,,,0.00,Wunderground v.1.15,2013-06-15 08:19:00,
2013-06-15 03:20:00,56.2,45.4,29.96,SSE,149,0.0,0.0,67,0.00,,,0.00,Wunderground v.1.15,2013-06-15 08:20:00,
2013-06-15 03:21:00,56.3,45.5,29.96,SSE,149,0.0,0.0,67,0.00,,,0.00,Wunderground v.1.15,2013-06-15 08:21:00,
2013-06-15 03:24:00,56.4,44.8,29.97,SSE,149,0.0,0.0,65,0.00,,,0.00,Wunderground v.1.15,2013-06-15 08:24:00,
2013-06-15 03:25:00,56.4,45.6,29.97,SSE,149,0.0,0.0,67,0.00,,,0.00,Wunderground v.1.15,2013-06-15 08:25:00,
2013-06-15 03:27:00,56.5,46.1,29.97,SSE,149,0.0,0.0,68,0.00,,,0.00,Wunderground v.1.15,2013-06-15 08:27:00,
2013-06-15 03:29:00,56.6,46.2,29.97,SSE,149,0.0,0.0,68,0.00,,,0.00,Wunderground v.1.15,2013-06-15 08:29:00,
2013-06-15 03:31:00,56.6,46.2,29.97,SSE,150,2.0,2.0,68,0.00,,,0.00,Wunderground v.1.15,2013-06-15 08:31:00,
2013-06-15 03:32:00,56.6,46.2,29.97,SSE,150,0.0,2.0,68,0.00,,,0.00,Wunderground v.1.15,2013-06-15 08:32:00,
2013-06-15 03:34:00,56.7,45.5,29.97,SSE,150,0.0,2.0,66,0.00,,,0.00,Wunderground v.1.15,2013-06-15 08:34:00,
2013-06-15 03:36:00,56.7,46.3,29.97,SSE,150,0.0,2.0,68,0.00,,,0.00,Wunderground v.1.15,2013-06-15 08:36:00,
2013-06-15 03:38:00,56.8,45.6,29.97,SSE,150,0.0,2.0,66,0.00,,,0.00,Wunderground v.1.15,2013-06-15 08:38:00,
2013-06-15 03:39:00,56.8,45.6,29.97,SSE,150,0.0,2.0,66,0.00,,,0.00,Wunderground v.1.15,2013-06-15 08:39:00,
2013-06-15 03:41:00,56.8,46.7,29.97,SSE,150,0.0,0.0,69,0.00,,,0.00,Wunderground v.1.15,2013-06-15 08:41:00,
2013-06-15 03:43:00,56.8,46.0,29.97,SSE,150,0.0,0.0,67,0.00,,,0.00,Wunderground v.1.15,2013-06-15 08:43:00,
2013-06-15 03:44:00,56.8,46.0,29.96,SSE,150,0.0,0.0,67,0.00,,,0.00,Wunderground v.1.15,2013-06-15 08:44:00,
2013-06-15 03:46:00,56.9,46.4,29.97,SSE,150,0.0,0.0,68,0.00,,,0.00,Wunderground v.1.15,2013-06-15 08:46:00,
2013-06-15 03:47:00,56.9,46.1,29.97,SSE,150,0.0,0.0,67,0.00,,,0.00,Wunderground v.1.15,2013-06-15 08:47:00,
2013-06-15 03:50:00,56.9,46.8,29.96,SSE,150,0.0,0.0,69,0.00,,,0.00,Wunderground v.1.15,2013-06-15 08:50:00,
2013-06-15 03:51:00,56.9,46.8,29.96,SSE,150,0.0,0.0,69,0.00,,,0.00,Wunderground v.1.15,2013-06-15 08:51:00,
2013-06-15 03:52:00,57.0,46.5,29.96,SSE,159,2.0,2.0,68,0.00,,,0.00,Wunderground v.1.15,2013-06-15 08:52:00,
2013-06-15 03:53:00,57.0,46.9,29.96,SSE,159,0.0,2.0,69,0.00,,,0.00,Wunderground v.1.15,2013-06-15 08:53:00,
2013-06-15 03:57:00,57.0,46.1,29.95,SSE,160,0.0,2.0,67,0.00,,,0.00,Wunderground v.1.15,2013-06-15 08:57:00,
2013-06-15 03:59:00,57.0,46.1,29.95,SSE,160,0.0,2.0,67,0.00,,,0.00,Wunderground v.1.15,2013-06-15 08:59:00,
2013-06-15 04:02:00,57.0,46.5,29.95,SSE,160,0.0,1.0,68,0.00,,,0.00,Wunderground v.1.15,2013-06-15 09:02:00,
2013-06-15 04:03:00,57.0,46.5,29.95,SSE,160,0.0,1.0,68,0.00,,,0.00,Wunderground v.1.15,2013-06-15 09:03:00,
2013-06-15 04:04:00,57.0,46.9,29.95,SSE,160,0.0,1.0,69,0.00,,,0.00,Wunderground v.1.15,2013-06-15 09:04:00,
2013-06-15 04:07:00,57.0,47.3,29.95,SSE,160,0.0,1.0,70,0.00,,,0.00,Wunderground v.1.15,2013-06-15 09:07:00,
2013-06-15 04:08:00,57.0,46.9,29.95,SSE,160,0.0,1.0,69,0.00,,,0.00,Wunderground v.1.15,2013-06-15 09:08:00,
2013-06-15 04:10:00,57.0,46.9,29.95,SSE,160,0.0,1.0,69,0.00,,,0.00,Wunderground v.1.15,2013-06-15 09:10:00,
2013-06-15 04:12:00,57.0,46.9,29.94,SSE,160,0.0,0.0,69,0.00,,,0.00,Wunderground v.1.15,2013-06-15 09:12:00,
2013-06-15 04:14:00,57.0,47.3,29.94,SSE,160,0.0,0.0,70,0.00,,,0.00,Wunderground v.1.15,2013-06-15 09:14:00,
2013-06-15 04:15:00,57.0,46.9,29.94,SSE,160,0.0,0.0,69,0.00,,,0.00,Wunderground v.1.15,2013-06-15 09:15:00,
2013-06-15 04:16:00,56.9,46.8,29.94,SSE,160,0.0,0.0,69,0.00,,,0.00,Wunderground v.1.15,2013-06-15 09:16:00,
2013-06-15 04:18:00,56.9,46.8,29.94,SSE,160,0.0,2.0,69,0.00,,,0.00,Wunderground v.1.15,2013-06-15 09:18:00,
2013-06-15 04:21:00,56.8,46.7,29.94,SSE,160,0.0,2.0,69,0.00,,,0.00,Wunderground v.1.15,2013-06-15 09:21:00,
2013-06-15 04:23:00,56.8,46.7,29.94,SSE,160,0.0,0.0,69,0.00,,,0.00,Wunderground v.1.15,2013-06-15 09:23:00,
2013-06-15 04:24:00,56.8,46.7,29.94,SSE,160,0.0,0.0,69,0.00,,,0.00,Wunderground v.1.15,2013-06-15 09:24:00,
2013-06-15 04:26:00,56.7,47.4,29.94,SSE,160,0.0,0.0,71,0.00,,,0.00,Wunderground v.1.15,2013-06-15 09:26:00,
2013-06-15 04:27:00,56.7,47.4,29.94,SSE,160,0.0,0.0,71,0.00,,,0.00,Wunderground v.1.15,2013-06-15 09:27:00,
2013-06-15 04:29:00,56.6,46.9,29.94,SSE,160,0.0,0.0,70,0.00,,,0.00,Wunderground v.1.15,2013-06-15 09:29:00,
2013-06-15 04:30:00,56.6,46.9,29.94,SSE,160,0.0,0.0,70,0.00,,,0.00,Wunderground v.1.15,2013-06-15 09:30:00,
2013-06-15 04:31:00,56.6,46.9,29.94,SSE,160,0.0,0.0,70,0.00,,,0.00,Wunderground v.1.15,2013-06-15 09:31:00,
2013-06-15 04:32:00,56.6,47.3,29.93,SSE,160,0.0,0.0,71,0.00,,,0.00,Wunderground v.1.15,2013-06-15 09:32:00,
2013-06-15 04:34:00,56.5,47.2,29.93,SSE,160,0.0,0.0,71,0.00,,,0.00,Wunderground v.1.15,2013-06-15 09:34:00,
2013-06-15 04:35:00,56.5,47.6,29.93,SSE,160,0.0,0.0,72,0.00,,,0.00,Wunderground v.1.15,2013-06-15 09:35:00,
2013-06-15 04:36:00,56.5,47.6,29.93,SSE,160,0.0,0.0,72,0.00,,,0.00,Wunderground v.1.15,2013-06-15 09:36:00,
2013-06-15 04:38:00,56.4,47.9,29.93,SSE,160,0.0,0.0,73,0.00,,,0.00,Wunderground v.1.15,2013-06-15 09:38:00,
2013-06-15 04:40:00,56.3,47.4,29.94,SSE,160,0.0,0.0,72,0.00,,,0.00,Wunderground v.1.15,2013-06-15 09:40:00,
2013-06-15 04:41:00,56.3,47.0,29.94,SSE,160,0.0,0.0,71,0.00,,,0.00,Wunderground v.1.15,2013-06-15 09:41:00,
2013-06-15 04:42:00,56.2,47.3,29.94,SSE,160,0.0,0.0,72,0.00,,,0.00,Wunderground v.1.15,2013-06-15 09:42:00,
2013-06-15 04:44:00,56.2,47.3,29.94,SSE,160,0.0,0.0,72,0.00,,,0.00,Wunderground v.1.15,2013-06-15 09:44:00,
2013-06-15 04:46:00,56.2,47.7,29.94,SSE,160,0.0,0.0,73,0.00,,,0.00,Wunderground v.1.15,2013-06-15 09:46:00,
2013-06-15 04:48:00,56.1,47.6,29.93,SSE,160,0.0,0.0,73,0.00,,,0.00,Wunderground v.1.15,2013-06-15 09:48:00,
2013-06-15 04:50:00,56.1,47.6,29.93,SSE,160,0.0,0.0,73,0.00,,,0.00,Wunderground v.1.15,2013-06-15 09:50:00,
2013-06-15 04:51:00,56.1,47.6,29.94,SSE,160,0.0,0.0,73,0.00,,,0.00,Wunderground v.1.15,2013-06-15 09:51:00,
2013-06-15 04:52:00,56.1,47.9,29.94,SSE,160,0.0,0.0,74,0.00,,,0.00,Wunderground v.1.15,2013-06-15 09:52:00,
2013-06-15 04:53:00,56.1,47.9,29.94,SSE,160,0.0,0.0,74,0.00,,,0.00,Wunderground v.1.15,2013-06-15 09:53:00,
2013-06-15 04:56:00,56.0,47.5,29.94,SSE,160,0.0,0.0,73,0.00,,,0.00,Wunderground v.1.15,2013-06-15 09:56:00,
2013-06-15 04:58:00,55.9,47.7,29.94,SSE,160,0.0,0.0,74,0.00,,,0.00,Wunderground v.1.15,2013-06-15 09:58:00,
2013-06-15 05:01:00,55.9,48.1,29.94,SSE,160,0.0,0.0,75,0.00,,,0.00,Wunderground v.1.15,2013-06-15 10:01:00,
2013-06-15 05:02:00,55.9,48.1,29.94,SSE,160,0.0,0.0,75,0.00,,,0.00,Wunderground v.1.15,2013-06-15 10:02:00,
2013-06-15 05:03:00,55.9,48.1,29.94,SSE,160,0.0,0.0,75,0.00,,,0.00,Wunderground v.1.15,2013-06-15 10:03:00,
2013-06-15 05:04:00,55.9,48.1,29.94,SSE,160,0.0,0.0,75,0.00,,,0.00,Wunderground v.1.15,2013-06-15 10:04:00,
2013-06-15 05:07:00,55.9,48.1,29.94,SSE,160,0.0,0.0,75,0.00,,,0.00,Wunderground v.1.15,2013-06-15 10:07:00,
2013-06-15 05:08:00,55.9,48.1,29.94,SSE,160,0.0,0.0,75,0.00,,,0.00,Wunderground v.1.15,2013-06-15 10:08:00,
2013-06-15 05:09:00,55.8,48.3,29.94,SSE,160,0.0,0.0,76,0.00,,,0.00,Wunderground v.1.15,2013-06-15 10:09:00,
2013-06-15 05:10:00,55.8,48.3,29.94,SSE,160,0.0,0.0,76,0.00,,,0.00,Wunderground v.1.15,2013-06-15 10:10:00,
2013-06-15 05:13:00,55.8,48.3,29.94,SSE,160,0.0,0.0,76,0.00,,,0.00,Wunderground v.1.15,2013-06-15 10:13:00,
2013-06-15 05:14:00,55.8,48.3,29.94,SSE,160,0.0,0.0,76,0.00,,,0.00,Wunderground v.1.15,2013-06-15 10:14:00,
2013-06-15 05:16:00,55.8,48.3,29.93,SSE,160,0.0,0.0,76,0.00,,,0.00,Wunderground v.1.15,2013-06-15 10:16:00,
2013-06-15 05:17:00,55.8,48.3,29.94,SSE,160,0.0,0.0,76,0.00,,,0.00,Wunderground v.1.15,2013-06-15 10:17:00,
2013-06-15 05:21:00,55.8,48.7,29.94,SSE,160,0.0,0.0,77,0.00,,,0.00,Wunderground v.1.15,2013-06-15 10:21:00,
2013-06-15 05:22:00,55.8,48.7,29.94,SSE,160,0.0,0.0,77,0.00,,,0.00,Wunderground v.1.15,2013-06-15 10:22:00,
2013-06-15 05:23:00,55.8,48.7,29.94,SSE,160,0.0,0.0,77,0.00,,,0.00,Wunderground v.1.15,2013-06-15 10:23:00,
2013-06-15 05:26:00,55.8,48.7,29.94,SSE,160,0.0,0.0,77,0.00,,,0.00,Wunderground v.1.15,2013-06-15 10:26:00,
2013-06-15 05:27:00,55.7,48.6,29.93,SSE,160,0.0,0.0,77,0.00,,,0.00,Wunderground v.1.15,2013-06-15 10:27:00,
2013-06-15 05:28:00,55.7,48.6,29.93,SSE,160,0.0,0.0,77,0.00,,,0.00,Wunderground v.1.15,2013-06-15 10:28:00,
2013-06-15 05:31:00,55.8,48.7,29.93,SSE,160,0.0,0.0,77,0.00,,,0.00,Wunderground v.1.15,2013-06-15 10:31:00,
2013-06-15 05:32:00,55.8,48.7,29.93,SSE,160,0.0,0.0,77,0.00,,,0.00,Wunderground v.1.15,2013-06-15 10:32:00,
2013-06-15 05:34:00,55.7,48.2,29.94,SSE,160,0.0,0.0,76,0.00,,,0.00,Wunderground v.1.15,2013-06-15 10:34:00,
2013-06-15 05:38:00,55.8,48.3,29.94,SSE,160,0.0,0.0,76,0.00,,,0.00,Wunderground v.1.15,2013-06-15 10:38:00,
2013-06-15 05:39:00,55.8,48.7,29.94,SSE,160,0.0,0.0,77,0.00,,,0.00,Wunderground v.1.15,2013-06-15 10:39:00,
2013-06-15 05:41:00,55.8,48.7,29.93,SSE,160,0.0,0.0,77,0.00,,,0.00,Wunderground v.1.15,2013-06-15 10:41:00,
2013-06-15 05:42:00,55.8,48.7,29.93,SSE,160,0.0,0.0,77,0.00,,,0.00,Wunderground v.1.15,2013-06-15 10:42:00,
2013-06-15 05:44:00,55.8,48.7,29.93,SSE,160,0.0,0.0,77,0.00,,,0.00,Wunderground v.1.15,2013-06-15 10:44:00,
2013-06-15 05:46:00,55.8,49.0,29.94,SSE,160,0.0,0.0,78,0.00,,,0.00,Wunderground v.1.15,2013-06-15 10:46:00,
2013-06-15 05:47:00,55.8,49.4,29.93,SSE,160,0.0,0.0,79,0.00,,,0.00,Wunderground v.1.15,2013-06-15 10:47:00,
2013-06-15 05:50:00,55.8,49.7,29.93,SSE,160,0.0,0.0,80,0.00,,,0.00,Wunderground v.1.15,2013-06-15 10:50:00,
2013-06-15 05:51:00,55.8,49.7,29.93,SSE,160,0.0,0.0,80,0.00,,,0.00,Wunderground v.1.15,2013-06-15 10:51:00,
2013-06-15 05:52:00,55.8,49.7,29.94,SSE,160,0.0,0.0,80,0.00,,,0.00,Wunderground v.1.15,2013-06-15 10:52:00,
2013-06-15 05:56:00,55.9,49.5,29.94,SSE,160,0.0,0.0,79,0.00,,,0.00,Wunderground v.1.15,2013-06-15 10:56:00,
2013-06-15 05:57:00,55.9,49.5,29.94,SSE,160,0.0,0.0,79,0.00,,,0.00,Wunderground v.1.15,2013-06-15 10:57:00,
2013-06-15 05:58:00,55.9,49.8,29.94,SSE,160,0.0,0.0,80,0.00,,,0.00,Wunderground v.1.15,2013-06-15 10:58:00,
2013-06-15 05:59:00,55.9,49.8,29.94,SSE,160,0.0,0.0,80,0.00,,,0.00,Wunderground v.1.15,2013-06-15 10:59:00,
2013-06-15 06:00:00,55.8,49.7,29.94,North,-999,0.0,0.0,80,0.00,,,-99.99,WeatherLink 5.9.3,2013-06-15 11:00:00,
2013-06-15 06:02:00,56.0,49.9,29.94,SSE,160,0.0,0.0,80,0.00,,,0.00,Wunderground v.1.15,2013-06-15 11:02:00,
2013-06-15 06:04:00,56.0,49.9,29.94,SSE,160,0.0,0.0,80,0.00,,,0.00,Wunderground v.1.15,2013-06-15 11:04:00,
2013-06-15 06:05:00,56.1,50.0,29.94,SSE,160,0.0,0.0,80,0.00,,,0.00,Wunderground v.1.15,2013-06-15 11:05:00,
2013-06-15 06:07:00,56.1,50.0,29.94,SSE,160,0.0,0.0,80,0.00,,,0.00,Wunderground v.1.15,2013-06-15 11:07:00,
2013-06-15 06:10:00,56.2,49.8,29.94,SSE,160,0.0,0.0,79,0.00,,,0.00,Wunderground v.1.15,2013-06-15 11:10:00,
2013-06-15 06:11:00,56.3,49.9,29.94,SSE,160,0.0,0.0,79,0.00,,,0.00,Wunderground v.1.15,2013-06-15 11:11:00,
2013-06-15 06:12:00,56.3,49.9,29.94,SSE,160,0.0,0.0,79,0.00,,,0.00,Wunderground v.1.15,2013-06-15 11:12:00,
2013-06-15 06:13:00,56.4,50.3,29.94,SSE,160,0.0,0.0,80,0.00,,,0.00,Wunderground v.1.15,2013-06-15 11:13:00,
2013-06-15 06:16:00,56.5,50.4,29.93,SSE,160,0.0,0.0,80,0.00,,,0.00,Wunderground v.1.15,2013-06-15 11:16:00,
2013-06-15 06:18:00,56.6,50.5,29.93,SSE,160,0.0,0.0,80,0.00,,,0.00,Wunderground v.1.15,2013-06-15 11:18:00,
2013-06-15 06:19:00,56.6,50.5,29.93,SSE,160,0.0,0.0,80,0.00,,,0.00,Wunderground v.1.15,2013-06-15 11:19:00,
2013-06-15 06:21:00,56.8,51.0,29.93,SSE,160,0.0,0.0,81,0.00,,,0.00,Wunderground v.1.15,2013-06-15 11:21:00,
2013-06-15 06:22:00,56.8,51.0,29.93,SSE,160,0.0,0.0,81,0.00,,,0.00,Wunderground v.1.15,2013-06-15 11:22:00,
2013-06-15 06:23:00,56.8,51.0,29.93,SSE,160,0.0,0.0,81,0.00,,,0.00,Wunderground v.1.15,2013-06-15 11:23:00,
2013-06-15 06:24:00,56.9,51.1,29.93,SSE,160,0.0,0.0,81,0.00,,,0.00,Wunderground v.1.15,2013-06-15 11:24:00,
2013-06-15 06:26:00,57.0,50.5,29.93,SSE,160,0.0,0.0,79,0.00,,,0.00,Wunderground v.1.15,2013-06-15 11:26:00,
2013-06-15 06:27:00,57.0,50.5,29.93,SSE,160,0.0,0.0,79,0.00,,,0.00,Wunderground v.1.15,2013-06-15 11:27:00,
2013-06-15 06:28:00,57.0,50.9,29.93,SSE,160,0.0,0.0,80,0.00,,,0.00,Wunderground v.1.15,2013-06-15 11:28:00,
2013-06-15 06:31:00,57.2,51.1,29.93,SSE,160,0.0,0.0,80,0.00,,,0.00,Wunderground v.1.15,2013-06-15 11:31:00,
2013-06-15 06:32:00,57.2,51.4,29.93,SSE,160,0.0,0.0,81,0.00,,,0.00,Wunderground v.1.15,2013-06-15 11:32:00,
2013-06-15 06:33:00,57.3,51.5,29.93,SSE,160,0.0,0.0,81,0.00,,,0.00,Wunderground v.1.15,2013-06-15 11:33:00,
2013-06-15 06:34:00,57.3,51.9,29.93,SSE,160,0.0,0.0,82,0.00,,,0.00,Wunderground v.1.15,2013-06-15 11:34:00,
2013-06-15 06:36:00,57.4,51.9,29.93,SSE,160,0.0,0.0,82,0.00,,,0.00,Wunderground v.1.15,2013-06-15 11:36:00,
2013-06-15 06:37:00,57.4,51.9,29.93,SSE,160,0.0,0.0,82,0.00,,,0.00,Wunderground v.1.15,2013-06-15 11:37:00,
2013-06-15 06:38:00,57.5,52.0,29.93,SSE,160,0.0,0.0,82,0.00,,,0.00,Wunderground v.1.15,2013-06-15 11:38:00,
2013-06-15 06:39:00,57.5,52.4,29.93,SSE,160,0.0,0.0,83,0.00,,,0.00,Wunderground v.1.15,2013-06-15 11:39:00,
2013-06-15 06:41:00,57.6,52.1,29.92,SSE,160,0.0,0.0,82,0.00,,,0.00,Wunderground v.1.15,2013-06-15 11:41:00,
2013-06-15 06:43:00,57.6,52.5,29.92,SSE,160,0.0,0.0,83,0.00,,,0.00,Wunderground v.1.15,2013-06-15 11:43:00,
2013-06-15 06:44:00,57.6,52.1,29.93,SSE,160,0.0,0.0,82,0.00,,,0.00,Wunderground v.1.15,2013-06-15 11:44:00,
2013-06-15 06:47:00,57.7,52.2,29.93,SSE,160,0.0,0.0,82,0.00,,,0.00,Wunderground v.1.15,2013-06-15 11:47:00,
2013-06-15 06:49:00,57.9,52.4,29.93,SSE,160,0.0,0.0,82,0.00,,,0.00,Wunderground v.1.15,2013-06-15 11:49:00,
2013-06-15 06:51:00,58.0,52.5,29.92,SSE,160,0.0,0.0,82,0.00,,,0.00,Wunderground v.1.15,2013-06-15 11:51:00,
2013-06-15 06:52:00,58.0,52.5,29.92,SSE,160,0.0,0.0,82,0.00,,,0.00,Wunderground v.1.15,2013-06-15 11:52:00,
2013-06-15 06:54:00,58.0,52.9,29.92,SSE,160,0.0,0.0,83,0.00,,,0.00,Wunderground v.1.15,2013-06-15 11:54:00,
2013-06-15 06:56:00,58.0,52.2,29.92,SSE,160,0.0,0.0,81,0.00,,,0.00,Wunderground v.1.15,2013-06-15 11:56:00,
2013-06-15 06:57:00,58.0,52.2,29.92,SSE,160,0.0,0.0,81,0.00,,,0.00,Wunderground v.1.15,2013-06-15 11:57:00,
2013-06-15 06:59:00,58.0,52.2,29.92,SSE,160,0.0,0.0,81,0.00,,,0.00,Wunderground v.1.15,2013-06-15 11:59:00,
2013-06-15 07:00:00,58.0,52.2,29.92,SSE,160,0.0,0.0,81,0.00,,,0.00,Wunderground v.1.15,2013-06-15 12:00:00,
2013-06-15 07:01:00,58.0,52.2,29.92,SSE,160,0.0,0.0,81,0.00,,,0.00,Wunderground v.1.15,2013-06-15 12:01:00,
2013-06-15 07:02:00,58.1,52.3,29.92,SSE,160,0.0,0.0,81,0.00,,,0.00,Wunderground v.1.15,2013-06-15 12:02:00,
2013-06-15 07:06:00,58.4,52.9,29.92,SSE,160,0.0,0.0,82,0.00,,,0.00,Wunderground v.1.15,2013-06-15 12:06:00,
2013-06-15 07:07:00,58.5,53.0,29.92,SSE,160,0.0,0.0,82,0.00,,,0.00,Wunderground v.1.15,2013-06-15 12:07:00,
2013-06-15 07:08:00,58.5,53.0,29.92,SSE,160,0.0,0.0,82,0.00,,,0.00,Wunderground v.1.15,2013-06-15 12:08:00,
2013-06-15 07:10:00,58.6,53.1,29.92,SSE,160,0.0,0.0,82,0.00,,,0.00,Wunderground v.1.15,2013-06-15 12:10:00,
2013-06-15 07:11:00,58.7,53.2,29.92,SSE,160,0.0,0.0,82,0.00,,,0.00,Wunderground v.1.15,2013-06-15 12:11:00,
2013-06-15 07:13:00,58.8,53.3,29.92,SSE,160,0.0,0.0,82,0.00,,,0.00,Wunderground v.1.15,2013-06-15 12:13:00,
2013-06-15 07:15:00,58.9,53.7,29.92,SSE,160,0.0,0.0,83,0.00,,,0.00,Wunderground v.1.15,2013-06-15 12:15:00,
2013-06-15 07:16:00,58.9,53.7,29.92,SSE,160,0.0,0.0,83,0.00,,,0.00,Wunderground v.1.15,2013-06-15 12:16:00,
2013-06-15 07:19:00,59.1,53.3,29.92,SSE,160,0.0,0.0,81,0.00,,,0.00,Wunderground v.1.15,2013-06-15 12:19:00,
2013-06-15 07:21:00,59.2,53.7,29.92,SSE,160,0.0,0.0,82,0.00,,,0.00,Wunderground v.1.15,2013-06-15 12:21:00,
2013-06-15 07:22:00,59.3,53.5,29.92,SSE,160,0.0,0.0,81,0.00,,,0.00,Wunderground v.1.15,2013-06-15 12:22:00,
2013-06-15 07:26:00,59.6,53.8,29.92,SSE,160,0.0,0.0,81,0.00,,,0.00,Wunderground v.1.15,2013-06-15 12:26:00,
2013-06-15 07:27:00,59.7,53.9,29.92,SSE,160,0.0,0.0,81,0.00,,,0.00,Wunderground v.1.15,2013-06-15 12:27:00,
2013-06-15 07:28:00,59.7,53.5,29.92,SSE,160,0.0,0.0,80,0.00,,,0.00,Wunderground v.1.15,2013-06-15 12:28:00,
2013-06-15 07:31:00,60.0,54.5,29.92,SSE,160,0.0,0.0,82,0.00,,,0.00,Wunderground v.1.15,2013-06-15 12:31:00,
2013-06-15 07:33:00,60.1,54.6,29.91,SSE,160,0.0,0.0,82,0.00,,,0.00,Wunderground v.1.15,2013-06-15 12:33:00,
2013-06-15 07:36:00,60.3,54.8,29.92,SSE,160,0.0,0.0,82,0.00,,,0.00,Wunderground v.1.15,2013-06-15 12:36:00,
2013-06-15 07:37:00,60.4,54.9,29.91,SSE,160,0.0,0.0,82,0.00,,,0.00,Wunderground v.1.15,2013-06-15 12:37:00,
2013-06-15 07:39:00,60.6,55.4,29.91,SSE,160,0.0,0.0,83,0.00,,,0.00,Wunderground v.1.15,2013-06-15 12:39:00,
2013-06-15 07:41:00,60.7,55.2,29.91,SSE,160,0.0,0.0,82,0.00,,,0.00,Wunderground v.1.15,2013-06-15 12:41:00,
2013-06-15 07:43:00,60.8,55.3,29.91,SSE,160,0.0,0.0,82,0.00,,,0.00,Wunderground v.1.15,2013-06-15 12:43:00,
2013-06-15 07:44:00,61.0,55.5,29.91,SSE,160,0.0,0.0,82,0.00,,,0.00,Wunderground v.1.15,2013-06-15 12:44:00,
2013-06-15 07:47:00,61.2,55.7,29.91,SSE,160,0.0,1.0,82,0.00,,,0.00,Wunderground v.1.15,2013-06-15 12:47:00,
2013-06-15 07:48:00,61.3,55.8,29.91,SSE,160,0.0,1.0,82,0.00,,,0.00,Wunderground v.1.15,2013-06-15 12:48:00,
2013-06-15 07:49:00,61.4,55.9,29.91,SSE,160,0.0,1.0,82,0.00,,,0.00,Wunderground v.1.15,2013-06-15 12:49:00,
2013-06-15 07:50:00,61.4,55.9,29.91,SSE,160,0.0,1.0,82,0.00,,,0.00,Wunderground v.1.15,2013-06-15 12:50:00,
2013-06-15 07:51:00,61.5,56.0,29.91,SSE,160,0.0,1.0,82,0.00,,,0.00,Wunderground v.1.15,2013-06-15 12:51:00,
2013-06-15 07:53:00,61.7,56.5,29.91,SSE,160,0.0,0.0,83,0.00,,,0.00,Wunderground v.1.15,2013-06-15 12:53:00,
2013-06-15 07:55:00,61.9,56.0,29.91,SE,146,0.0,0.0,81,0.00,,,0.00,Wunderground v.1.15,2013-06-15 12:55:00,
2013-06-15 07:57:00,62.1,56.2,29.91,SE,146,0.0,0.0,81,0.00,,,0.00,Wunderground v.1.15,2013-06-15 12:57:00,
2013-06-15 07:59:00,62.2,56.3,29.91,SE,146,0.0,1.0,81,0.00,,,0.00,Wunderground v.1.15,2013-06-15 12:59:00,
2013-06-15 08:01:00,62.3,56.0,29.91,SE,146,0.0,1.0,80,0.00,,,0.00,Wunderground v.1.15,2013-06-15 13:01:00,
2013-06-15 08:03:00,62.5,56.2,29.91,SE,145,0.0,2.0,80,0.00,,,0.00,Wunderground v.1.15,2013-06-15 13:03:00,
2013-06-15 08:04:00,62.5,56.2,29.91,SE,145,0.0,2.0,80,0.00,,,0.00,Wunderground v.1.15,2013-06-15 13:04:00,
2013-06-15 08:08:00,62.9,56.6,29.91,SE,144,2.0,2.0,80,0.00,,,0.00,Wunderground v.1.15,2013-06-15 13:08:00,
2013-06-15 08:10:00,63.0,56.7,29.91,SE,144,0.0,2.0,80,0.00,,,0.00,Wunderground v.1.15,2013-06-15 13:10:00,
2013-06-15 08:15:00,63.6,58.3,29.91,SE,144,0.0,0.0,83,0.00,,,0.00,Wunderground v.1.15,2013-06-15 13:15:00,
2013-06-15 08:16:00,63.7,58.8,29.91,SE,144,0.0,0.0,84,0.00,,,0.00,Wunderground v.1.15,2013-06-15 13:16:00,
2013-06-15 08:17:00,63.8,57.9,29.91,SE,144,1.0,1.0,81,0.00,,,0.00,Wunderground v.1.15,2013-06-15 13:17:00,
2013-06-15 08:20:00,64.1,57.8,29.91,SE,144,1.0,1.0,80,0.00,,,0.00,Wunderground v.1.15,2013-06-15 13:20:00,
2013-06-15 08:21:00,64.3,57.6,29.91,SE,144,0.0,0.0,79,0.00,,,0.00,Wunderground v.1.15,2013-06-15 13:21:00,
2013-06-15 08:22:00,64.4,58.1,29.91,SE,144,0.0,0.0,80,0.00,,,0.00,Wunderground v.1.15,2013-06-15 13:22:00,
2013-06-15 08:23:00,64.5,58.2,29.91,SE,144,1.0,1.0,80,0.00,,,0.00,Wunderground v.1.15,2013-06-15 13:23:00,
2013-06-15 08:24:00,64.7,58.0,29.91,SE,144,0.0,1.0,79,0.00,,,0.00,Wunderground v.1.15,2013-06-15 13:24:00,
2013-06-15 08:26:00,64.9,58.9,29.91,SE,144,0.0,1.0,81,0.00,,,0.00,Wunderground v.1.15,2013-06-15 13:26:00,
2013-06-15 08:28:00,65.2,58.5,29.91,SE,144,0.0,1.0,79,0.00,,,0.00,Wunderground v.1.15,2013-06-15 13:28:00,
2013-06-15 08:29:00,65.3,58.3,29.91,ESE,120,0.0,1.0,78,0.00,,,0.00,Wunderground v.1.15,2013-06-15 13:29:00,
2013-06-15 08:31:00,65.6,57.8,29.91,ESE,121,0.0,0.0,76,0.00,,,0.00,Wunderground v.1.15,2013-06-15 13:31:00,
2013-06-15 08:32:00,65.8,58.0,29.92,ESE,121,0.0,0.0,76,0.00,,,0.00,Wunderground v.1.15,2013-06-15 13:32:00,
2013-06-15 08:34:00,65.9,57.7,29.92,ESE,121,0.0,0.0,75,0.00,,,0.00,Wunderground v.1.15,2013-06-15 13:34:00,
2013-06-15 08:37:00,66.3,59.6,29.92,ESE,122,0.0,0.0,79,0.00,,,0.00,Wunderground v.1.15,2013-06-15 13:37:00,
2013-06-15 08:39:00,66.4,58.6,29.92,ESE,121,0.0,0.0,76,0.00,,,0.00,Wunderground v.1.15,2013-06-15 13:39:00,
2013-06-15 08:41:00,66.4,58.2,29.92,ESE,121,0.0,0.0,75,0.00,,,0.00,Wunderground v.1.15,2013-06-15 13:41:00,
2013-06-15 08:42:00,66.4,58.2,29.92,ESE,122,0.0,0.0,75,0.00,,,0.00,Wunderground v.1.15,2013-06-15 13:42:00,
2013-06-15 08:44:00,66.4,57.9,29.92,ESE,121,0.0,0.0,74,0.00,,,0.00,Wunderground v.1.15,2013-06-15 13:44:00,
2013-06-15 08:46:00,66.3,57.8,29.92,ESE,121,0.0,0.0,74,0.00,,,0.00,Wunderground v.1.15,2013-06-15 13:46:00,
2013-06-15 08:47:00,66.3,58.5,29.92,ESE,121,0.0,0.0,76,0.00,,,0.00,Wunderground v.1.15,2013-06-15 13:47:00,
2013-06-15 08:50:00,66.4,58.2,29.93,ESE,121,0.0,0.0,75,0.00,,,0.00,Wunderground v.1.15,2013-06-15 13:50:00,
2013-06-15 08:51:00,66.4,58.2,29.92,ESE,121,0.0,0.0,75,0.00,,,0.00,Wunderground v.1.15,2013-06-15 13:51:00,
2013-06-15 08:52:00,66.4,58.2,29.92,ESE,121,0.0,0.0,75,0.00,,,0.00,Wunderground v.1.15,2013-06-15 13:52:00,
2013-06-15 08:53:00,66.4,58.6,29.93,ESE,121,0.0,0.0,76,0.00,,,0.00,Wunderground v.1.15,2013-06-15 13:53:00,
2013-06-15 08:56:00,66.5,58.7,29.93,ESE,121,0.0,0.0,76,0.00,,,0.00,Wunderground v.1.15,2013-06-15 13:56:00,
2013-06-15 08:57:00,66.6,59.2,29.92,ESE,123,0.0,1.0,77,0.00,,,0.00,Wunderground v.1.15,2013-06-15 13:57:00,
2013-06-15 08:58:00,66.6,59.2,29.92,South,189,2.0,2.0,77,0.00,,,0.00,Wunderground v.1.15,2013-06-15 13:58:00,
2013-06-15 09:00:00,65.2,58.2,29.92,ESE,112,0.0,3.0,78,0.00,,,-99.99,WeatherLink 5.9.3,2013-06-15 14:00:00,
2013-06-15 09:01:00,66.4,58.6,29.92,South,189,0.0,2.0,76,0.00,,,0.00,Wunderground v.1.15,2013-06-15 14:01:00,
2013-06-15 09:02:00,66.4,59.3,29.92,South,189,0.0,0.0,78,0.00,,,0.00,Wunderground v.1.15,2013-06-15 14:02:00,
2013-06-15 09:03:00,66.4,59.3,29.92,South,190,0.0,0.0,78,0.00,,,0.00,Wunderground v.1.15,2013-06-15 14:03:00,
2013-06-15 09:05:00,66.4,60.0,29.92,South,190,0.0,0.0,80,0.00,,,0.00,Wunderground v.1.15,2013-06-15 14:05:00,
2013-06-15 09:06:00,66.4,59.3,29.92,South,190,0.0,0.0,78,0.00,,,0.00,Wunderground v.1.15,2013-06-15 14:06:00,
2013-06-15 09:07:00,66.4,59.3,29.92,South,190,0.0,0.0,78,0.00,,,0.00,Wunderground v.1.15,2013-06-15 14:07:00,
2013-06-15 09:09:00,66.4,59.3,29.92,South,190,0.0,2.0,78,0.00,,,0.00,Wunderground v.1.15,2013-06-15 14:09:00,
2013-06-15 09:12:00,66.5,59.4,29.92,South,177,0.0,0.0,78,0.00,,,0.00,Wunderground v.1.15,2013-06-15 14:12:00,
2013-06-15 09:13:00,66.5,59.8,29.92,South,177,0.0,0.0,79,0.00,,,0.00,Wunderground v.1.15,2013-06-15 14:13:00,
2013-06-15 09:14:00,66.5,59.4,29.92,South,177,0.0,0.0,78,0.00,,,0.00,Wunderground v.1.15,2013-06-15 14:14:00,
2013-06-15 09:18:00,66.7,60.0,29.92,South,177,0.0,0.0,79,0.00,,,0.00,Wunderground v.1.15,2013-06-15 14:18:00,
2013-06-15 09:19:00,66.8,60.1,29.91,South,177,0.0,0.0,79,0.00,,,0.00,Wunderground v.1.15,2013-06-15 14:19:00,
2013-06-15 09:21:00,66.8,60.1,29.91,South,177,0.0,0.0,79,0.00,,,0.00,Wunderground v.1.15,2013-06-15 14:21:00,
2013-06-15 09:23:00,66.9,59.8,29.91,South,177,0.0,0.0,78,0.00,,,0.00,Wunderground v.1.15,2013-06-15 14:23:00,
2013-06-15 09:24:00,66.9,59.8,29.91,South,177,0.0,0.0,78,0.00,,,0.00,Wunderground v.1.15,2013-06-15 14:24:00,
2013-06-15 09:25:00,67.0,59.9,29.91,South,177,0.0,0.0,78,0.00,,,0.00,Wunderground v.1.15,2013-06-15 14:25:00,
2013-06-15 09:26:00,67.0,59.9,29.91,South,177,0.0,0.0,78,0.00,,,0.00,Wunderground v.1.15,2013-06-15 14:26:00,
2013-06-15 09:27:00,67.0,60.3,29.91,South,173,0.0,2.0,79,0.00,,,0.00,Wunderground v.1.15,2013-06-15 14:27:00,
2013-06-15 09:29:00,67.2,60.8,29.91,South,173,0.0,2.0,80,0.00,,,0.00,Wunderground v.1.15,2013-06-15 14:29:00,
2013-06-15 09:30:00,67.2,60.5,29.91,South,173,0.0,2.0,79,0.00,,,0.00,Wunderground v.1.15,2013-06-15 14:30:00,
2013-06-15 09:31:00,67.3,60.6,29.91,South,173,0.0,2.0,79,0.00,,,0.00,Wunderground v.1.15,2013-06-15 14:31:00,
2013-06-15 09:34:00,67.4,60.3,29.91,SSE,167,1.0,1.0,78,0.00,,,0.00,Wunderground v.1.15,2013-06-15 14:34:00,
2013-06-15 09:36:00,67.4,60.7,29.91,SSE,167,1.0,1.0,79,0.00,,,0.00,Wunderground v.1.15,2013-06-15 14:36:00,
2013-06-15 09:37:00,67.4,60.3,29.91,SSE,167,0.0,1.0,78,0.00,,,0.00,Wunderground v.1.15,2013-06-15 14:37:00,
2013-06-15 09:41:00,67.6,60.5,29.91,SSE,165,0.0,2.0,78,0.00,,,0.00,Wunderground v.1.15,2013-06-15 14:41:00,
2013-06-15 09:42:00,67.7,60.6,29.91,SSE,165,0.0,0.0,78,0.00,,,0.00,Wunderground v.1.15,2013-06-15 14:42:00,
2013-06-15 09:46:00,68.0,61.6,29.90,SSE,165,0.0,0.0,80,0.00,,,0.00,Wunderground v.1.15,2013-06-15 14:46:00,
2013-06-15 09:47:00,68.1,61.7,29.90,SE,144,0.0,1.0,80,0.00,,,0.00,Wunderground v.1.15,2013-06-15 14:47:00,
2013-06-15 09:49:00,68.2,61.4,29.90,SE,144,1.0,1.0,79,0.00,,,0.00,Wunderground v.1.15,2013-06-15 14:49:00,
2013-06-15 09:51:00,68.3,61.5,29.90,SE,145,0.0,1.0,79,0.00,,,0.00,Wunderground v.1.15,2013-06-15 14:51:00,
2013-06-15 09:52:00,68.3,61.2,29.90,SE,145,0.0,0.0,78,0.00,,,0.00,Wunderground v.1.15,2013-06-15 14:52:00,
2013-06-15 09:53:00,68.4,61.3,29.90,SE,145,0.0,0.0,78,0.00,,,0.00,Wunderground v.1.15,2013-06-15 14:53:00,
2013-06-15 09:57:00,68.5,61.0,29.90,South,178,0.0,2.0,77,0.00,,,0.00,Wunderground v.1.15,2013-06-15 14:57:00,
2013-06-15 09:58:00,68.5,61.0,29.90,South,178,0.0,2.0,77,0.00,,,0.00,Wunderground v.1.15,2013-06-15 14:58:00,
2013-06-15 10:00:00,67.4,59.9,29.91,South,180,0.0,4.0,77,0.00,,,-99.99,WeatherLink 5.9.3,2013-06-15 15:00:00,
2013-06-15 10:01:00,68.7,61.6,29.90,South,178,0.0,2.0,78,0.00,,,0.00,Wunderground v.1.15,2013-06-15 15:01:00,
2013-06-15 10:04:00,68.8,62.0,29.90,SSE,158,0.0,2.0,79,0.00,,,0.00,Wunderground v.1.15,2013-06-15 15:04:00,
2013-06-15 10:06:00,69.0,61.5,29.90,SSE,158,0.0,2.0,77,0.00,,,0.00,Wunderground v.1.15,2013-06-15 15:06:00,
2013-06-15 10:08:00,69.2,62.0,29.90,South,172,0.0,2.0,78,0.00,,,0.00,Wunderground v.1.15,2013-06-15 15:08:00,
2013-06-15 10:09:00,69.2,62.0,29.90,South,172,0.0,2.0,78,0.00,,,0.00,Wunderground v.1.15,2013-06-15 15:09:00,
2013-06-15 10:12:00,69.4,62.6,29.90,SSE,161,4.0,4.0,79,0.00,,,0.00,Wunderground v.1.15,2013-06-15 15:12:00,
2013-06-15 10:13:00,69.4,62.2,29.90,South,175,0.0,4.0,78,0.00,,,0.00,Wunderground v.1.15,2013-06-15 15:13:00,
2013-06-15 10:14:00,69.5,62.7,29.90,South,186,2.0,4.0,79,0.00,,,0.00,Wunderground v.1.15,2013-06-15 15:14:00,
2013-06-15 10:16:00,69.6,61.7,29.90,South,189,0.0,5.0,76,0.00,,,0.00,Wunderground v.1.15,2013-06-15 15:16:00,
2013-06-15 10:17:00,69.6,62.1,29.90,South,189,0.0,5.0,77,0.00,,,0.00,Wunderground v.1.15,2013-06-15 15:17:00,
2013-06-15 10:19:00,69.6,61.7,29.89,South,188,0.0,5.0,76,0.00,,,0.00,Wunderground v.1.15,2013-06-15 15:19:00,
2013-06-15 10:20:00,69.7,61.4,29.89,South,189,0.0,5.0,75,0.00,,,0.00,Wunderground v.1.15,2013-06-15 15:20:00,
2013-06-15 10:21:00,69.7,61.8,29.89,South,189,0.0,5.0,76,0.00,,,0.00,Wunderground v.1.15,2013-06-15 15:21:00,
2013-06-15 10:23:00,69.8,62.3,29.89,South,188,0.0,1.0,77,0.00,,,0.00,Wunderground v.1.15,2013-06-15 15:23:00,
2013-06-15 10:25:00,69.9,62.4,29.89,SSE,153,2.0,2.0,77,0.00,,,0.00,Wunderground v.1.15,2013-06-15 15:25:00,
2013-06-15 10:26:00,69.9,62.4,29.90,SSE,153,0.0,2.0,77,0.00,,,0.00,Wunderground v.1.15,2013-06-15 15:26:00,
2013-06-15 10:27:00,69.9,62.4,29.90,SSE,153,0.0,2.0,77,0.00,,,0.00,Wunderground v.1.15,2013-06-15 15:27:00,
2013-06-15 10:29:00,69.9,62.0,29.90,SSE,150,0.0,2.0,76,0.00,,,0.00,Wunderground v.1.15,2013-06-15 15:29:00,
2013-06-15 10:31:00,70.0,62.8,29.90,SSE,150,0.0,0.0,78,0.00,,,0.00,Wunderground v.1.15,2013-06-15 15:31:00,
2013-06-15 10:33:00,70.1,62.6,29.90,SSE,150,1.0,1.0,77,0.00,,,0.00,Wunderground v.1.15,2013-06-15 15:33:00,
2013-06-15 10:34:00,70.1,62.2,29.90,SSE,150,0.0,1.0,76,0.00,,,0.00,Wunderground v.1.15,2013-06-15 15:34:00,
2013-06-15 10:36:00,70.3,62.4,29.90,SSE,150,0.0,1.0,76,0.00,,,0.00,Wunderground v.1.15,2013-06-15 15:36:00,
2013-06-15 10:38:00,70.3,62.0,29.90,WSW,244,0.0,2.0,75,0.00,,,0.00,Wunderground v.1.15,2013-06-15 15:38:00,
2013-06-15 10:39:00,70.3,62.0,29.90,WSW,244,0.0,2.0,75,0.00,,,0.00,Wunderground v.1.15,2013-06-15 15:39:00,
2013-06-15 10:42:00,70.3,62.4,29.91,WSW,245,1.0,1.0,76,0.00,,,0.00,Wunderground v.1.15,2013-06-15 15:42:00,
2013-06-15 10:44:00,70.4,62.8,29.91,WSW,244,0.0,1.0,77,0.00,,,0.00,Wunderground v.1.15,2013-06-15 15:44:00,
2013-06-15 10:45:00,70.4,62.8,29.91,WSW,244,0.0,1.0,77,0.00,,,0.00,Wunderground v.1.15,2013-06-15 15:45:00,
2013-06-15 10:47:00,70.6,63.0,29.91,SSE,149,0.0,3.0,77,0.00,,,0.00,Wunderground v.1.15,2013-06-15 15:47:00,
2013-06-15 10:51:00,70.9,64.1,29.91,SSE,149,0.0,3.0,79,0.00,,,0.00,Wunderground v.1.15,2013-06-15 15:51:00,
2013-06-15 10:52:00,70.9,63.7,29.91,SSE,149,0.0,1.0,78,0.00,,,0.00,Wunderground v.1.15,2013-06-15 15:52:00,
2013-06-15 10:55:00,71.0,63.4,29.91,SSE,156,0.0,3.0,77,0.00,,,0.00,Wunderground v.1.15,2013-06-15 15:55:00,
2013-06-15 10:56:00,71.0,63.1,29.91,SSE,155,0.0,3.0,76,0.00,,,0.00,Wunderground v.1.15,2013-06-15 15:56:00,
2013-06-15 10:57:00,71.0,63.4,29.91,SSE,156,0.0,3.0,77,0.00,,,0.00,Wunderground v.1.15,2013-06-15 15:57:00,
2013-06-15 10:58:00,71.0,63.8,29.91,SSE,156,0.0,3.0,78,0.00,,,0.00,Wunderground v.1.15,2013-06-15 15:58:00,
2013-06-15 11:00:00,70.1,62.2,29.90,SSE,157,0.0,5.0,76,0.00,,,-99.99,WeatherLink 5.9.3,2013-06-15 16:00:00,
2013-06-15 11:02:00,71.0,63.4,29.90,SSE,156,0.0,0.0,77,0.00,,,0.00,Wunderground v.1.15,2013-06-15 16:02:00,
2013-06-15 11:03:00,71.0,63.4,29.90,SSE,156,0.0,0.0,77,0.00,,,0.00,Wunderground v.1.15,2013-06-15 16:03:00,
2013-06-15 11:04:00,71.0,63.8,29.90,SSE,156,0.0,0.0,78,0.00,,,0.00,Wunderground v.1.15,2013-06-15 16:04:00,
2013-06-15 11:07:00,70.9,63.3,29.90,SSE,156,0.0,0.0,77,0.00,,,0.00,Wunderground v.1.15,2013-06-15 16:07:00,
2013-06-15 11:08:00,70.8,63.2,29.91,SSE,156,0.0,0.0,77,0.00,,,0.00,Wunderground v.1.15,2013-06-15 16:08:00,
2013-06-15 11:12:00,70.8,63.2,29.91,SSE,156,0.0,1.0,77,0.00,,,0.00,Wunderground v.1.15,2013-06-15 16:12:00,
2013-06-15 11:13:00,70.8,62.9,29.91,SSE,156,0.0,3.0,76,0.00,,,0.00,Wunderground v.1.15,2013-06-15 16:13:00,
2013-06-15 11:15:00,70.8,62.9,29.91,SSE,156,0.0,3.0,76,0.00,,,0.00,Wunderground v.1.15,2013-06-15 16:15:00,
2013-06-15 11:17:00,70.9,63.3,29.91,SSE,156,0.0,3.0,77,0.00,,,0.00,Wunderground v.1.15,2013-06-15 16:17:00,
2013-06-15 11:19:00,71.0,63.1,29.91,SSE,156,0.0,3.0,76,0.00,,,0.00,Wunderground v.1.15,2013-06-15 16:19:00,
2013-06-15 11:21:00,71.1,63.1,29.91,SSE,156,0.0,3.0,76,0.00,,,0.00,Wunderground v.1.15,2013-06-15 16:21:00,
2013-06-15 11:22:00,71.1,64.3,29.90,SSE,156,0.0,0.0,79,0.00,,,0.00,Wunderground v.1.15,2013-06-15 16:22:00,
2013-06-15 11:23:00,71.2,64.0,29.90,SSE,156,0.0,0.0,78,0.00,,,0.00,Wunderground v.1.15,2013-06-15 16:23:00,
2013-06-15 11:26:00,71.1,62.8,29.90,SSE,156,0.0,0.0,75,0.00,,,0.00,Wunderground v.1.15,2013-06-15 16:26:00,
2013-06-15 11:28:00,71.1,62.4,29.90,SSE,156,0.0,0.0,74,0.00,,,0.00,Wunderground v.1.15,2013-06-15 16:28:00,
2013-06-15 11:29:00,71.1,62.8,29.90,SSE,156,0.0,0.0,75,0.00,,,0.00,Wunderground v.1.15,2013-06-15 16:29:00,
2013-06-15 11:31:00,71.3,62.6,29.90,SSE,156,0.0,0.0,74,0.00,,,0.00,Wunderground v.1.15,2013-06-15 16:31:00,
2013-06-15 11:33:00,71.5,63.9,29.90,SSE,156,0.0,0.0,77,0.00,,,0.00,Wunderground v.1.15,2013-06-15 16:33:00,
2013-06-15 11:34:00,71.6,62.9,29.90,SSE,156,0.0,0.0,74,0.00,,,0.00,Wunderground v.1.15,2013-06-15 16:34:00,
2013-06-15 11:36:00,71.9,63.5,29.90,SSE,156,1.0,1.0,75,0.00,,,0.00,Wunderground v.1.15,2013-06-15 16:36:00,
2013-06-15 11:38:00,71.9,62.8,29.90,South,171,0.0,1.0,73,0.00,,,0.00,Wunderground v.1.15,2013-06-15 16:38:00,
2013-06-15 11:39:00,72.0,62.9,29.90,South,171,0.0,1.0,73,0.00,,,0.00,Wunderground v.1.15,2013-06-15 16:39:00,
2013-06-15 11:40:00,72.0,63.6,29.90,South,171,0.0,1.0,75,0.00,,,0.00,Wunderground v.1.15,2013-06-15 16:40:00,
2013-06-15 11:41:00,72.0,63.6,29.90,South,171,0.0,1.0,75,0.00,,,0.00,Wunderground v.1.15,2013-06-15 16:41:00,
2013-06-15 11:42:00,72.0,63.3,29.90,South,171,0.0,0.0,74,0.00,,,0.00,Wunderground v.1.15,2013-06-15 16:42:00,
2013-06-15 11:45:00,72.2,63.4,29.90,South,169,1.0,1.0,74,0.00,,,0.00,Wunderground v.1.15,2013-06-15 16:45:00,
2013-06-15 11:46:00,72.2,63.8,29.90,SE,144,3.0,3.0,75,0.00,,,0.00,Wunderground v.1.15,2013-06-15 16:46:00,
2013-06-15 11:47:00,72.3,63.2,29.89,SE,144,0.0,3.0,73,0.00,,,0.00,Wunderground v.1.15,2013-06-15 16:47:00,
2013-06-15 11:48:00,72.3,63.2,29.89,SE,144,0.0,3.0,73,0.00,,,0.00,Wunderground v.1.15,2013-06-15 16:48:00,
2013-06-15 11:52:00,72.7,64.3,29.89,SE,144,0.0,0.0,75,0.00,,,0.00,Wunderground v.1.15,2013-06-15 16:52:00,
2013-06-15 11:53:00,72.8,64.4,29.89,SE,144,0.0,0.0,75,0.00,,,0.00,Wunderground v.1.15,2013-06-15 16:53:00,
2013-06-15 11:54:00,72.9,64.9,29.89,ESE,115,3.0,3.0,76,0.00,,,0.00,Wunderground v.1.15,2013-06-15 16:54:00,
2013-06-15 11:55:00,72.9,63.7,29.89,SSE,166,1.0,3.0,73,0.00,,,0.00,Wunderground v.1.15,2013-06-15 16:55:00,
2013-06-15 11:58:00,73.3,63.7,29.89,ESE,120,0.0,3.0,72,0.00,,,0.00,Wunderground v.1.15,2013-06-15 16:58:00,
2013-06-15 11:59:00,73.3,63.7,29.89,ESE,120,0.0,3.0,72,0.00,,,0.00,Wunderground v.1.15,2013-06-15 16:59:00,
2013-06-15 12:00:00,73.4,63.4,29.89,ESE,120,1.0,3.0,71,0.00,,,0.00,Wunderground v.1.15,2013-06-15 17:00:00,
2013-06-15 12:04:00,74.0,65.2,29.88,ESE,121,4.0,4.0,74,0.00,,,0.00,Wunderground v.1.15,2013-06-15 17:04:00,
2013-06-15 12:05:00,74.2,65.8,29.88,ESE,119,1.0,4.0,75,0.00,,,0.00,Wunderground v.1.15,2013-06-15 17:05:00,
2013-06-15 12:08:00,74.5,64.5,29.88,SE,126,0.0,4.0,71,0.00,,,0.00,Wunderground v.1.15,2013-06-15 17:08:00,
2013-06-15 12:11:00,75.1,66.2,29.89,SE,137,0.0,4.0,74,0.00,,,0.00,Wunderground v.1.15,2013-06-15 17:11:00,
2013-06-15 12:12:00,75.2,66.3,29.89,SE,141,2.0,4.0,74,0.00,,,0.00,Wunderground v.1.15,2013-06-15 17:12:00,
2013-06-15 12:13:00,75.3,66.8,29.89,SE,141,1.0,4.0,75,0.00,,,0.00,Wunderground v.1.15,2013-06-15 17:13:00,
2013-06-15 12:14:00,75.6,65.9,29.89,SE,145,0.0,4.0,72,0.00,,,0.00,Wunderground v.1.15,2013-06-15 17:14:00,
2013-06-15 12:17:00,76.0,66.3,29.88,SE,146,2.0,5.0,72,0.00,,,0.00,Wunderground v.1.15,2013-06-15 17:17:00,
2013-06-15 12:18:00,76.0,66.3,29.88,SE,146,0.0,5.0,72,0.00,,,0.00,Wunderground v.1.15,2013-06-15 17:18:00,
2013-06-15 12:19:00,76.1,66.4,29.88,SE,146,0.0,5.0,72,0.00,,,0.00,Wunderground v.1.15,2013-06-15 17:19:00,
2013-06-15 12:20:00,76.1,64.8,29.88,SE,146,0.0,5.0,68,0.00,,,0.00,Wunderground v.1.15,2013-06-15 17:20:00,
2013-06-15 12:23:00,76.1,65.2,29.88,ENE,69,1.0,3.0,69,0.00,,,0.00,Wunderground v.1.15,2013-06-15 17:23:00,
2013-06-15 12:24:00,75.9,65.0,29.88,ESE,122,1.0,3.0,69,0.00,,,0.00,Wunderground v.1.15,2013-06-15 17:24:00,
2013-06-15 12:25:00,75.8,65.3,29.88,ESE,122,0.0,3.0,70,0.00,,,0.00,Wunderground v.1.15,2013-06-15 17:25:00,
2013-06-15 12:26:00,75.6,64.7,29.88,SSW,202,0.0,3.0,69,0.00,,,0.00,Wunderground v.1.15,2013-06-15 17:26:00,
2013-06-15 12:28:00,75.4,64.5,29.87,SE,142,1.0,5.0,69,0.00,,,0.00,Wunderground v.1.15,2013-06-15 17:28:00,
2013-06-15 12:30:00,75.2,64.3,29.87,SE,127,0.0,5.0,69,0.00,,,0.00,Wunderground v.1.15,2013-06-15 17:30:00,
2013-06-15 12:31:00,75.0,65.0,29.87,SE,129,0.0,1.0,71,0.00,,,0.00,Wunderground v.1.15,2013-06-15 17:31:00,
2013-06-15 12:32:00,74.9,64.5,29.88,SE,129,0.0,1.0,70,0.00,,,0.00,Wunderground v.1.15,2013-06-15 17:32:00,
2013-06-15 12:33:00,74.8,63.9,29.88,SE,129,0.0,1.0,69,0.00,,,0.00,Wunderground v.1.15,2013-06-15 17:33:00,
2013-06-15 12:34:00,74.7,64.3,29.88,ESE,109,0.0,1.0,70,0.00,,,0.00,Wunderground v.1.15,2013-06-15 17:34:00,
2013-06-15 12:35:00,74.5,64.5,29.88,ESE,109,0.0,1.0,71,0.00,,,0.00,Wunderground v.1.15,2013-06-15 17:35:00,
2013-06-15 12:37:00,74.4,65.2,29.88,ESE,109,0.0,1.0,73,0.00,,,0.00,Wunderground v.1.15,2013-06-15 17:37:00,
2013-06-15 12:38:00,74.4,65.6,29.88,ESE,109,0.0,1.0,74,0.00,,,0.00,Wunderground v.1.15,2013-06-15 17:38:00,
2013-06-15 12:39:00,74.4,65.6,29.88,SE,126,4.0,4.0,74,0.00,,,0.00,Wunderground v.1.15,2013-06-15 17:39:00,
2013-06-15 12:40:00,74.3,65.5,29.88,SSE,163,1.0,4.0,74,0.00,,,0.00,Wunderground v.1.15,2013-06-15 17:40:00,
2013-06-15 12:41:00,74.3,65.5,29.87,SSE,163,4.0,4.0,74,0.00,,,0.00,Wunderground v.1.15,2013-06-15 17:41:00,
2013-06-15 12:43:00,74.3,66.6,29.87,SSE,163,1.0,1.0,77,0.00,,,0.00,Wunderground v.1.15,2013-06-15 17:43:00,
2013-06-15 12:45:00,74.4,66.7,29.87,SSE,157,0.0,3.0,77,0.00,,,0.00,Wunderground v.1.15,2013-06-15 17:45:00,
2013-06-15 12:46:00,74.5,66.8,29.87,SSE,161,2.0,3.0,77,0.00,,,0.00,Wunderground v.1.15,2013-06-15 17:46:00,
2013-06-15 12:47:00,74.5,66.1,29.87,SSE,161,0.0,3.0,75,0.00,,,0.00,Wunderground v.1.15,2013-06-15 17:47:00,
2013-06-15 12:51:00,74.5,65.7,29.87,SSE,148,3.0,3.0,74,0.00,,,0.00,Wunderground v.1.15,2013-06-15 17:51:00,
2013-06-15 12:52:00,74.5,65.3,29.87,SSE,147,0.0,3.0,73,0.00,,,0.00,Wunderground v.1.15,2013-06-15 17:52:00,
2013-06-15 12:54:00,74.5,66.1,29.87,ESE,116,2.0,3.0,75,0.00,,,0.00,Wunderground v.1.15,2013-06-15 17:54:00,
2013-06-15 12:55:00,74.6,66.1,29.87,ESE,116,0.0,3.0,75,0.00,,,0.00,Wunderground v.1.15,2013-06-15 17:55:00,
2013-06-15 12:57:00,74.6,66.1,29.87,SSW,196,0.0,4.0,75,0.00,,,0.00,Wunderground v.1.15,2013-06-15 17:57:00,
2013-06-15 12:58:00,74.6,65.0,29.86,South,169,0.0,5.0,72,0.00,,,0.00,Wunderground v.1.15,2013-06-15 17:58:00,
2013-06-15 12:59:00,74.6,65.0,29.86,WSW,245,1.0,5.0,72,0.00,,,0.00,Wunderground v.1.15,2013-06-15 17:59:00,
2013-06-15 13:00:00,74.6,65.0,29.86,SW,219,0.0,5.0,72,0.00,,,0.00,Wunderground v.1.15,2013-06-15 18:00:00,
2013-06-15 13:04:00,74.8,64.8,29.86,SSE,152,0.0,4.0,71,0.00,,,0.00,Wunderground v.1.15,2013-06-15 18:04:00,
2013-06-15 13:06:00,74.7,63.9,29.86,NW,319,1.0,4.0,69,0.00,,,0.00,Wunderground v.1.15,2013-06-15 18:06:00,
2013-06-15 13:07:00,74.7,64.3,29.86,SSE,167,5.0,5.0,70,0.00,,,0.00,Wunderground v.1.15,2013-06-15 18:07:00,
2013-06-15 13:09:00,74.7,63.9,29.86,South,184,1.0,7.0,69,0.00,,,0.00,Wunderground v.1.15,2013-06-15 18:09:00,
2013-06-15 13:10:00,74.7,64.3,29.86,South,174,0.0,7.0,70,0.00,,,0.00,Wunderground v.1.15,2013-06-15 18:10:00,
2013-06-15 13:11:00,74.7,65.1,29.86,West,276,8.0,8.0,72,0.00,,,0.00,Wunderground v.1.15,2013-06-15 18:11:00,
2013-06-15 13:12:00,74.7,64.7,29.85,WSW,240,0.0,8.0,71,0.00,,,0.00,Wunderground v.1.15,2013-06-15 18:12:00,
2013-06-15 13:16:00,74.4,65.2,29.85,SSE,161,0.0,8.0,73,0.00,,,0.00,Wunderground v.1.15,2013-06-15 18:16:00,
2013-06-15 13:19:00,74.1,64.1,29.85,WSW,254,0.0,9.0,71,0.00,,,0.00,Wunderground v.1.15,2013-06-15 18:19:00,
2013-06-15 13:21:00,74.0,64.0,29.85,South,190,0.0,9.0,71,0.00,,,0.00,Wunderground v.1.15,2013-06-15 18:21:00,
2013-06-15 13:22:00,73.9,64.7,29.85,South,190,1.0,1.0,73,0.00,,,0.00,Wunderground v.1.15,2013-06-15 18:22:00,
2013-06-15 13:23:00,73.9,64.7,29.84,WNW,294,5.0,5.0,73,0.00,,,0.00,Wunderground v.1.15,2013-06-15 18:23:00,
2013-06-15 13:24:00,73.8,64.2,29.85,South,189,0.0,5.0,72,0.00,,,0.00,Wunderground v.1.15,2013-06-15 18:24:00,
2013-06-15 13:27:00,73.6,64.4,29.84,West,273,3.0,5.0,73,0.00,,,0.00,Wunderground v.1.15,2013-06-15 18:27:00,
2013-06-15 13:28:00,73.5,64.3,29.85,SSE,159,2.0,5.0,73,0.00,,,0.00,Wunderground v.1.15,2013-06-15 18:28:00,
2013-06-15 13:29:00,73.5,64.7,29.85,SSE,158,0.0,5.0,74,0.00,,,0.00,Wunderground v.1.15,2013-06-15 18:29:00,
2013-06-15 13:31:00,73.4,64.2,29.85,SSW,213,0.0,2.0,73,0.00,,,0.00,Wunderground v.1.15,2013-06-15 18:31:00,
2013-06-15 13:33:00,73.4,64.2,29.86,WSW,254,1.0,4.0,73,0.00,,,0.00,Wunderground v.1.15,2013-06-15 18:33:00,
2013-06-15 13:35:00,73.3,64.5,29.85,SSE,156,1.0,5.0,74,0.00,,,0.00,Wunderground v.1.15,2013-06-15 18:35:00,
2013-06-15 13:36:00,73.3,64.5,29.86,WSW,244,0.0,5.0,74,0.00,,,0.00,Wunderground v.1.15,2013-06-15 18:36:00,
2013-06-15 13:40:00,73.2,64.8,29.86,WSW,257,0.0,6.0,75,0.00,,,0.00,Wunderground v.1.15,2013-06-15 18:40:00,
2013-06-15 13:41:00,73.0,64.2,29.86,West,274,3.0,6.0,74,0.00,,,0.00,Wunderground v.1.15,2013-06-15 18:41:00,
2013-06-15 13:42:00,72.9,63.7,29.86,WNW,292,2.0,3.0,73,0.00,,,0.00,Wunderground v.1.15,2013-06-15 18:42:00,
2013-06-15 13:43:00,72.9,64.1,29.86,South,183,4.0,4.0,74,0.00,,,0.00,Wunderground v.1.15,2013-06-15 18:43:00,
2013-06-15 13:46:00,72.6,63.8,29.86,WSW,252,4.0,5.0,74,0.00,,,0.00,Wunderground v.1.15,2013-06-15 18:46:00,
2013-06-15 13:49:00,72.3,63.9,29.87,SSW,195,1.0,5.0,75,0.00,,,0.00,Wunderground v.1.15,2013-06-15 18:49:00,
2013-06-15 13:51:00,72.1,63.7,29.87,NNW,331,1.0,11.0,75,0.00,,,0.00,Wunderground v.1.15,2013-06-15 18:51:00,
2013-06-15 13:54:00,71.9,63.5,29.87,SSW,205,2.0,7.0,75,0.00,,,0.00,Wunderground v.1.15,2013-06-15 18:54:00,
2013-06-15 13:57:00,71.8,63.8,29.87,South,169,6.0,7.0,76,0.00,,,0.00,Wunderground v.1.15,2013-06-15 18:57:00,
2013-06-15 13:58:00,71.7,63.4,29.87,WSW,246,1.0,7.0,75,0.00,,,0.00,Wunderground v.1.15,2013-06-15 18:58:00,
2013-06-15 13:59:00,71.7,63.7,29.87,West,273,0.0,7.0,76,0.00,,,0.00,Wunderground v.1.15,2013-06-15 18:59:00,
2013-06-15 14:01:00,71.7,64.1,29.87,North,11,0.0,7.0,77,0.00,,,0.00,Wunderground v.1.15,2013-06-15 19:01:00,
2013-06-15 14:03:00,71.6,63.6,29.88,WSW,249,3.0,5.0,76,0.00,,,0.00,Wunderground v.1.15,2013-06-15 19:03:00,
2013-06-15 14:06:00,71.5,63.9,29.88,NNW,331,3.0,8.0,77,0.00,,,0.00,Wunderground v.1.15,2013-06-15 19:06:00,
2013-06-15 14:07:00,71.5,63.9,29.88,West,271,2.0,8.0,77,0.00,,,0.00,Wunderground v.1.15,2013-06-15 19:07:00,
2013-06-15 14:08:00,71.5,63.9,29.88,SSW,205,0.0,8.0,77,0.00,,,0.00,Wunderground v.1.15,2013-06-15 19:08:00,
2013-06-15 14:10:00,71.4,63.8,29.88,North,360,4.0,8.0,77,0.00,,,0.00,Wunderground v.1.15,2013-06-15 19:10:00,
2013-06-15 14:11:00,71.4,63.4,29.88,WSW,254,2.0,8.0,76,0.00,,,0.00,Wunderground v.1.15,2013-06-15 19:11:00,
2013-06-15 14:12:00,71.4,64.2,29.88,South,180,3.0,3.0,78,0.00,,,0.00,Wunderground v.1.15,2013-06-15 19:12:00,
2013-06-15 14:15:00,71.3,63.7,29.88,West,262,0.0,3.0,77,0.00,,,0.00,Wunderground v.1.15,2013-06-15 19:15:00,
2013-06-15 14:17:00,71.2,63.6,29.88,SSE,157,3.0,7.0,77,0.00,,,0.00,Wunderground v.1.15,2013-06-15 19:17:00,
2013-06-15 14:18:00,71.3,64.1,29.87,SW,234,3.0,7.0,78,0.00,,,0.00,Wunderground v.1.15,2013-06-15 19:18:00,
2013-06-15 14:22:00,71.3,64.1,29.87,SW,232,9.0,9.0,78,0.00,,,0.00,Wunderground v.1.15,2013-06-15 19:22:00,
2013-06-15 14:23:00,71.3,64.1,29.87,SW,225,1.0,9.0,78,0.00,,,0.00,Wunderground v.1.15,2013-06-15 19:23:00,
2013-06-15 14:27:00,71.5,64.3,29.87,West,267,7.0,9.0,78,0.00,,,0.00,Wunderground v.1.15,2013-06-15 19:27:00,
2013-06-15 14:28:00,71.6,64.7,29.86,WNW,292,0.0,9.0,79,0.00,,,0.00,Wunderground v.1.15,2013-06-15 19:28:00,
2013-06-15 14:31:00,71.7,64.8,29.86,South,171,0.0,9.0,79,0.00,,,0.00,Wunderground v.1.15,2013-06-15 19:31:00,
2013-06-15 14:32:00,71.9,65.4,29.86,WNW,285,1.0,6.0,80,0.00,,,0.00,Wunderground v.1.15,2013-06-15 19:32:00,
2013-06-15 14:33:00,72.0,65.1,29.87,South,181,1.0,6.0,79,0.00,,,0.00,Wunderground v.1.15,2013-06-15 19:33:00,
2013-06-15 14:34:00,72.0,65.1,29.87,SSE,163,5.0,6.0,79,0.00,,,0.00,Wunderground v.1.15,2013-06-15 19:34:00,
2013-06-15 14:36:00,72.2,65.0,29.87,SE,130,0.0,6.0,78,0.00,,,0.00,Wunderground v.1.15,2013-06-15 19:36:00,
2013-06-15 14:37:00,72.3,65.1,29.87,NNE,23,2.0,6.0,78,0.00,,,0.00,Wunderground v.1.15,2013-06-15 19:37:00,
2013-06-15 14:39:00,72.5,65.6,29.86,East,89,1.0,6.0,79,0.00,,,0.00,Wunderground v.1.15,2013-06-15 19:39:00,
2013-06-15 14:41:00,72.7,65.8,29.86,South,177,0.0,1.0,79,0.00,,,0.00,Wunderground v.1.15,2013-06-15 19:41:00,
2013-06-15 14:43:00,72.9,66.0,29.86,South,173,0.0,1.0,79,0.00,,,0.00,Wunderground v.1.15,2013-06-15 19:43:00,
2013-06-15 14:44:00,73.0,65.7,29.86,South,173,0.0,1.0,78,0.00,,,0.00,Wunderground v.1.15,2013-06-15 19:44:00,
2013-06-15 14:45:00,73.0,65.7,29.86,South,173,0.0,1.0,78,0.00,,,0.00,Wunderground v.1.15,2013-06-15 19:45:00,
2013-06-15 14:49:00,73.4,65.7,29.86,NW,320,1.0,4.0,77,0.00,,,0.00,Wunderground v.1.15,2013-06-15 19:49:00,
2013-06-15 14:50:00,73.5,65.8,29.86,WSW,247,0.0,4.0,77,0.00,,,0.00,Wunderground v.1.15,2013-06-15 19:50:00,
2013-06-15 14:51:00,73.6,66.3,29.86,NNW,334,0.0,1.0,78,0.00,,,0.00,Wunderground v.1.15,2013-06-15 19:51:00,
2013-06-15 14:54:00,73.9,66.6,29.86,SW,228,2.0,5.0,78,0.00,,,0.00,Wunderground v.1.15,2013-06-15 19:54:00,
2013-06-15 14:55:00,73.9,66.6,29.85,West,261,4.0,5.0,78,0.00,,,0.00,Wunderground v.1.15,2013-06-15 19:55:00,
2013-06-15 14:57:00,74.2,66.1,29.85,WNW,284,2.0,5.0,76,0.00,,,0.00,Wunderground v.1.15,2013-06-15 19:57:00,
2013-06-15 15:00:00,72.4,64.8,29.85,South,180,2.0,10.0,77,0.00,,,-99.99,WeatherLink 5.9.3,2013-06-15 20:00:00,
2013-06-15 15:01:00,74.8,66.7,29.85,ESE,112,0.0,5.0,76,0.00,,,0.00,Wunderground v.1.15,2013-06-15 20:01:00,
2013-06-15 15:02:00,75.0,66.9,29.85,ESE,120,0.0,1.0,76,0.00,,,0.00,Wunderground v.1.15,2013-06-15 20:02:00,
2013-06-15 15:03:00,75.2,67.5,29.85,ESE,120,0.0,1.0,77,0.00,,,0.00,Wunderground v.1.15,2013-06-15 20:03:00,
2013-06-15 15:07:00,75.7,66.8,29.85,SSW,205,0.0,5.0,74,0.00,,,0.00,Wunderground v.1.15,2013-06-15 20:07:00,
2013-06-15 15:08:00,75.9,67.4,29.85,South,176,0.0,5.0,75,0.00,,,0.00,Wunderground v.1.15,2013-06-15 20:08:00,
2013-06-15 15:09:00,76.0,67.5,29.85,SE,144,0.0,5.0,75,0.00,,,0.00,Wunderground v.1.15,2013-06-15 20:09:00,
2013-06-15 15:12:00,76.0,66.7,29.84,WNW,299,2.0,2.0,73,0.00,,,0.00,Wunderground v.1.15,2013-06-15 20:12:00,
2013-06-15 15:14:00,75.9,67.8,29.84,WNW,286,0.0,7.0,76,0.00,,,0.00,Wunderground v.1.15,2013-06-15 20:14:00,
2013-06-15 15:15:00,75.9,67.0,29.84,WNW,286,0.0,7.0,74,0.00,,,0.00,Wunderground v.1.15,2013-06-15 20:15:00,
2013-06-15 15:18:00,75.8,66.9,29.84,SE,130,1.0,7.0,74,0.00,,,0.00,Wunderground v.1.15,2013-06-15 20:18:00,
2013-06-15 15:19:00,75.6,66.3,29.84,SW,222,0.0,7.0,73,0.00,,,0.00,Wunderground v.1.15,2013-06-15 20:19:00,
2013-06-15 15:21:00,75.4,66.5,29.84,SSW,200,0.0,7.0,74,0.00,,,0.00,Wunderground v.1.15,2013-06-15 20:21:00,
2013-06-15 15:22:00,75.3,66.0,29.84,West,274,2.0,6.0,73,0.00,,,0.00,Wunderground v.1.15,2013-06-15 20:22:00,
2013-06-15 15:24:00,75.1,66.2,29.84,West,266,0.0,6.0,74,0.00,,,0.00,Wunderground v.1.15,2013-06-15 20:24:00,
2013-06-15 15:26:00,75.0,66.5,29.84,South,169,1.0,6.0,75,0.00,,,0.00,Wunderground v.1.15,2013-06-15 20:26:00,
2013-06-15 15:29:00,74.8,67.1,29.84,South,185,1.0,6.0,77,0.00,,,0.00,Wunderground v.1.15,2013-06-15 20:29:00,
2013-06-15 15:30:00,74.7,66.2,29.83,SSE,155,4.0,6.0,75,0.00,,,0.00,Wunderground v.1.15,2013-06-15 20:30:00,
2013-06-15 15:32:00,74.7,66.6,29.83,WSW,238,1.0,2.0,76,0.00,,,0.00,Wunderground v.1.15,2013-06-15 20:32:00,
2013-06-15 15:35:00,74.5,66.1,29.83,South,174,2.0,2.0,75,0.00,,,0.00,Wunderground v.1.15,2013-06-15 20:35:00,
2013-06-15 15:37:00,74.4,66.3,29.83,WSW,242,0.0,2.0,76,0.00,,,0.00,Wunderground v.1.15,2013-06-15 20:37:00,
2013-06-15 15:38:00,74.4,66.3,29.83,SSW,193,1.0,4.0,76,0.00,,,0.00,Wunderground v.1.15,2013-06-15 20:38:00,
2013-06-15 15:41:00,74.3,66.6,29.83,SSE,161,0.0,4.0,77,0.00,,,0.00,Wunderground v.1.15,2013-06-15 20:41:00,
2013-06-15 15:42:00,74.3,66.6,29.83,SSE,166,1.0,1.0,77,0.00,,,0.00,Wunderground v.1.15,2013-06-15 20:42:00,
2013-06-15 15:44:00,74.3,66.6,29.83,South,170,0.0,1.0,77,0.00,,,0.00,Wunderground v.1.15,2013-06-15 20:44:00,
2013-06-15 15:47:00,74.3,66.6,29.83,SSW,213,0.0,1.0,77,0.00,,,0.00,Wunderground v.1.15,2013-06-15 20:47:00,
2013-06-15 15:48:00,74.3,66.6,29.83,SSW,213,0.0,1.0,77,0.00,,,0.00,Wunderground v.1.15,2013-06-15 20:48:00,
2013-06-15 15:49:00,74.3,66.6,29.83,SW,231,0.0,1.0,77,0.00,,,0.00,Wunderground v.1.15,2013-06-15 20:49:00,
2013-06-15 15:51:00,74.4,66.7,29.83,SW,221,3.0,3.0,77,0.00,,,0.00,Wunderground v.1.15,2013-06-15 20:51:00,
2013-06-15 15:54:00,74.5,66.4,29.83,South,177,2.0,3.0,76,0.00,,,0.00,Wunderground v.1.15,2013-06-15 20:54:00,
2013-06-15 15:56:00,74.5,67.2,29.83,South,175,0.0,3.0,78,0.00,,,0.00,Wunderground v.1.15,2013-06-15 20:56:00,
2013-06-15 15:57:00,74.6,66.9,29.83,NW,308,0.0,5.0,77,0.00,,,0.00,Wunderground v.1.15,2013-06-15 20:57:00,
2013-06-15 15:58:00,74.6,66.1,29.82,SSE,157,1.0,5.0,75,0.00,,,0.00,Wunderground v.1.15,2013-06-15 20:58:00,
2013-06-15 16:00:00,74.6,66.5,29.82,SE,135,4.0,5.0,76,0.00,,,0.00,Wunderground v.1.15,2013-06-15 21:00:00,
2013-06-15 16:02:00,74.7,67.0,29.82,SW,234,0.0,1.0,77,0.00,,,0.00,Wunderground v.1.15,2013-06-15 21:02:00,
2013-06-15 16:03:00,74.7,67.4,29.82,SW,235,0.0,1.0,78,0.00,,,0.00,Wunderground v.1.15,2013-06-15 21:03:00,
2013-06-15 16:04:00,74.8,67.5,29.82,SSW,201,0.0,1.0,78,0.00,,,0.00,Wunderground v.1.15,2013-06-15 21:04:00,
2013-06-15 16:05:00,74.9,67.2,29.82,West,277,1.0,1.0,77,0.00,,,0.00,Wunderground v.1.15,2013-06-15 21:05:00,
2013-06-15 16:08:00,75.0,66.9,29.82,NW,304,5.0,5.0,76,0.00,,,0.00,Wunderground v.1.15,2013-06-15 21:08:00,
2013-06-15 16:09:00,75.0,66.9,29.82,WNW,295,0.0,5.0,76,0.00,,,0.00,Wunderground v.1.15,2013-06-15 21:09:00,
2013-06-15 16:11:00,75.1,67.0,29.81,WNW,288,3.0,5.0,76,0.00,,,0.00,Wunderground v.1.15,2013-06-15 21:11:00,
2013-06-15 16:15:00,75.1,67.0,29.81,SSE,158,0.0,3.0,76,0.00,,,0.00,Wunderground v.1.15,2013-06-15 21:15:00,
2013-06-15 16:16:00,75.1,67.0,29.81,SSE,161,0.0,3.0,76,0.00,,,0.00,Wunderground v.1.15,2013-06-15 21:16:00,
2013-06-15 16:17:00,75.1,67.8,29.81,SSE,161,0.0,3.0,78,0.00,,,0.00,Wunderground v.1.15,2013-06-15 21:17:00,
2013-06-15 16:19:00,75.1,67.4,29.81,SE,144,0.0,3.0,77,0.00,,,0.00,Wunderground v.1.15,2013-06-15 21:19:00,
2013-06-15 16:20:00,75.1,67.4,29.81,SE,144,0.0,3.0,77,0.00,,,0.00,Wunderground v.1.15,2013-06-15 21:20:00,
2013-06-15 16:21:00,75.0,66.9,29.81,SE,146,0.0,1.0,76,0.00,,,0.00,Wunderground v.1.15,2013-06-15 21:21:00,
2013-06-15 16:22:00,75.0,67.3,29.81,SE,146,0.0,1.0,77,0.00,,,0.00,Wunderground v.1.15,2013-06-15 21:22:00,
2013-06-15 16:24:00,74.9,66.8,29.81,SSE,157,0.0,1.0,76,0.00,,,0.00,Wunderground v.1.15,2013-06-15 21:24:00,
2013-06-15 16:26:00,74.8,66.3,29.81,WSW,246,2.0,2.0,75,0.00,,,0.00,Wunderground v.1.15,2013-06-15 21:26:00,
2013-06-15 16:27:00,74.8,66.7,29.81,WSW,246,0.0,2.0,76,0.00,,,0.00,Wunderground v.1.15,2013-06-15 21:27:00,
2013-06-15 16:29:00,74.7,66.6,29.81,South,171,0.0,6.0,76,0.00,,,0.00,Wunderground v.1.15,2013-06-15 21:29:00,
2013-06-15 16:31:00,74.7,67.0,29.81,West,261,1.0,6.0,77,0.00,,,0.00,Wunderground v.1.15,2013-06-15 21:31:00,
2013-06-15 16:33:00,74.6,66.9,29.81,SE,142,0.0,4.0,77,0.00,,,0.00,Wunderground v.1.15,2013-06-15 21:33:00,
2013-06-15 16:34:00,74.5,66.8,29.80,WNW,285,2.0,4.0,77,0.00,,,0.00,Wunderground v.1.15,2013-06-15 21:34:00,
2013-06-15 16:36:00,74.5,66.4,29.80,WNW,302,1.0,4.0,76,0.00,,,0.00,Wunderground v.1.15,2013-06-15 21:36:00,
2013-06-15 16:37:00,74.5,66.8,29.80,SSW,195,1.0,4.0,77,0.00,,,0.00,Wunderground v.1.15,2013-06-15 21:37:00,
2013-06-15 16:38:00,74.4,67.1,29.80,South,183,0.0,4.0,78,0.00,,,0.00,Wunderground v.1.15,2013-06-15 21:38:00,
2013-06-15 16:39:00,74.4,67.1,29.80,South,183,0.0,4.0,78,0.00,,,0.00,Wunderground v.1.15,2013-06-15 21:39:00,
2013-06-15 16:43:00,74.5,67.6,29.80,South,177,1.0,2.0,79,0.00,,,0.00,Wunderground v.1.15,2013-06-15 21:43:00,
2013-06-15 16:44:00,74.5,67.6,29.80,South,177,0.0,2.0,79,0.00,,,0.00,Wunderground v.1.15,2013-06-15 21:44:00,
2013-06-15 16:45:00,74.5,67.2,29.80,South,177,0.0,2.0,78,0.00,,,0.00,Wunderground v.1.15,2013-06-15 21:45:00,
2013-06-15 16:46:00,74.6,67.7,29.80,South,177,0.0,2.0,79,0.00,,,0.00,Wunderground v.1.15,2013-06-15 21:46:00,
2013-06-15 16:48:00,74.7,67.4,29.80,South,177,0.0,2.0,78,0.00,,,0.00,Wunderground v.1.15,2013-06-15 21:48:00,
2013-06-15 16:49:00,74.8,67.5,29.80,South,181,0.0,2.0,78,0.00,,,0.00,Wunderground v.1.15,2013-06-15 21:49:00,
2013-06-15 16:51:00,74.9,67.6,29.79,South,180,0.0,2.0,78,0.00,,,0.00,Wunderground v.1.15,2013-06-15 21:51:00,
2013-06-15 16:52:00,74.9,67.6,29.79,SSE,150,0.0,1.0,78,0.00,,,0.00,Wunderground v.1.15,2013-06-15 21:52:00,
2013-06-15 16:53:00,74.9,66.8,29.79,SE,132,0.0,3.0,76,0.00,,,0.00,Wunderground v.1.15,2013-06-15 21:53:00,
2013-06-15 16:56:00,75.0,67.3,29.79,NW,313,0.0,3.0,77,0.00,,,0.00,Wunderground v.1.15,2013-06-15 21:56:00,
2013-06-15 16:57:00,75.0,67.3,29.79,SSE,165,0.0,4.0,77,0.00,,,0.00,Wunderground v.1.15,2013-06-15 21:57:00,
2013-06-15 16:59:00,75.1,67.4,29.79,SSE,165,0.0,4.0,77,0.00,,,0.00,Wunderground v.1.15,2013-06-15 21:59:00,
2013-06-15 17:00:00,75.2,67.5,29.79,ESE,120,1.0,4.0,77,0.00,,,0.00,Wunderground v.1.15,2013-06-15 22:00:00,
2013-06-15 17:01:00,75.2,67.5,29.79,ESE,120,1.0,1.0,77,0.00,,,0.00,Wunderground v.1.15,2013-06-15 22:01:00,
2013-06-15 17:02:00,75.2,67.1,29.79,SE,135,4.0,6.0,76,0.00,,,0.00,Wunderground v.1.15,2013-06-15 22:02:00,
2013-06-15 17:04:00,75.2,67.5,29.79,SE,135,1.0,6.0,77,0.00,,,0.00,Wunderground v.1.15,2013-06-15 22:04:00,
2013-06-15 17:05:00,75.3,68.0,29.79,SE,135,0.0,6.0,78,0.00,,,0.00,Wunderground v.1.15,2013-06-15 22:05:00,
2013-06-15 17:06:00,75.3,67.6,29.79,SE,135,0.0,6.0,77,0.00,,,0.00,Wunderground v.1.15,2013-06-15 22:06:00,
2013-06-15 17:07:00,75.3,68.0,29.79,ESE,105,0.0,6.0,78,0.00,,,0.00,Wunderground v.1.15,2013-06-15 22:07:00,
2013-06-15 17:10:00,75.3,67.6,29.79,SSE,155,5.0,6.0,77,0.00,,,0.00,Wunderground v.1.15,2013-06-15 22:10:00,
2013-06-15 17:11:00,75.4,67.7,29.79,ESE,122,1.0,1.0,77,0.00,,,0.00,Wunderground v.1.15,2013-06-15 22:11:00,
2013-06-15 17:12:00,75.4,67.7,29.79,SSW,207,3.0,3.0,77,0.00,,,0.00,Wunderground v.1.15,2013-06-15 22:12:00,
2013-06-15 17:13:00,75.4,68.1,29.79,SSE,166,1.0,3.0,78,0.00,,,0.00,Wunderground v.1.15,2013-06-15 22:13:00,
2013-06-15 17:15:00,75.5,68.2,29.78,SSE,166,1.0,3.0,78,0.00,,,0.00,Wunderground v.1.15,2013-06-15 22:15:00,
2013-06-15 17:16:00,75.5,68.2,29.78,South,171,0.0,3.0,78,0.00,,,0.00,Wunderground v.1.15,2013-06-15 22:16:00,
2013-06-15 17:17:00,75.6,68.3,29.78,South,171,0.0,3.0,78,0.00,,,0.00,Wunderground v.1.15,2013-06-15 22:17:00,
2013-06-15 17:18:00,75.7,68.0,29.78,SSE,167,0.0,3.0,77,0.00,,,0.00,Wunderground v.1.15,2013-06-15 22:18:00,
2013-06-15 17:21:00,75.9,67.8,29.78,NNE,13,0.0,3.0,76,0.00,,,0.00,Wunderground v.1.15,2013-06-15 22:21:00,
2013-06-15 17:22:00,76.0,67.5,29.78,East,88,0.0,1.0,75,0.00,,,0.00,Wunderground v.1.15,2013-06-15 22:22:00,
2013-06-15 17:23:00,76.0,67.9,29.78,SSE,152,3.0,3.0,76,0.00,,,0.00,Wunderground v.1.15,2013-06-15 22:23:00,
2013-06-15 17:25:00,76.2,68.1,29.78,NW,306,0.0,3.0,76,0.00,,,0.00,Wunderground v.1.15,2013-06-15 22:25:00,
2013-06-15 17:26:00,76.2,68.1,29.78,NW,306,0.0,3.0,76,0.00,,,0.00,Wunderground v.1.15,2013-06-15 22:26:00,
2013-06-15 17:27:00,76.3,68.2,29.78,NW,306,0.0,3.0,76,0.00,,,0.00,Wunderground v.1.15,2013-06-15 22:27:00,
2013-06-15 17:29:00,76.4,67.5,29.77,South,178,1.0,3.0,74,0.00,,,0.00,Wunderground v.1.15,2013-06-15 22:29:00,
2013-06-15 17:30:00,76.5,67.6,29.77,South,185,0.0,3.0,74,0.00,,,0.00,Wunderground v.1.15,2013-06-15 22:30:00,
2013-06-15 17:31:00,76.5,68.0,29.77,South,185,0.0,3.0,75,0.00,,,0.00,Wunderground v.1.15,2013-06-15 22:31:00,
2013-06-15 17:32:00,76.6,67.7,29.77,SSE,159,0.0,6.0,74,0.00,,,0.00,Wunderground v.1.15,2013-06-15 22:32:00,
2013-06-15 17:33:00,76.6,67.7,29.77,WNW,299,3.0,6.0,74,0.00,,,0.00,Wunderground v.1.15,2013-06-15 22:33:00,
2013-06-15 17:36:00,76.6,68.1,29.77,SSW,195,0.0,6.0,75,0.00,,,0.00,Wunderground v.1.15,2013-06-15 22:36:00,
2013-06-15 17:37:00,76.5,68.0,29.77,SSW,195,0.0,6.0,75,0.00,,,0.00,Wunderground v.1.15,2013-06-15 22:37:00,
2013-06-15 17:39:00,76.5,68.4,29.76,South,190,0.0,6.0,76,0.00,,,0.00,Wunderground v.1.15,2013-06-15 22:39:00,
2013-06-15 17:41:00,76.5,68.4,29.77,WSW,257,0.0,6.0,76,0.00,,,0.00,Wunderground v.1.15,2013-06-15 22:41:00,
2013-06-15 17:42:00,76.5,68.0,29.77,WSW,257,0.0,0.0,75,0.00,,,0.00,Wunderground v.1.15,2013-06-15 22:42:00,
2013-06-15 17:43:00,76.5,68.0,29.77,WSW,257,0.0,0.0,75,0.00,,,0.00,Wunderground v.1.15,2013-06-15 22:43:00,
2013-06-15 17:46:00,76.3,68.2,29.77,SSW,200,0.0,1.0,76,0.00,,,0.00,Wunderground v.1.15,2013-06-15 22:46:00,
2013-06-15 17:48:00,76.2,68.1,29.77,South,190,0.0,3.0,76,0.00,,,0.00,Wunderground v.1.15,2013-06-15 22:48:00,
2013-06-15 17:51:00,76.1,68.0,29.77,North,360,1.0,1.0,76,0.00,,,0.00,Wunderground v.1.15,2013-06-15 22:51:00,
2013-06-15 17:52:00,76.0,67.9,29.77,North,360,0.0,1.0,76,0.00,,,0.00,Wunderground v.1.15,2013-06-15 22:52:00,
2013-06-15 17:53:00,76.0,67.9,29.77,North,360,0.0,1.0,76,0.00,,,0.00,Wunderground v.1.15,2013-06-15 22:53:00,
2013-06-15 17:54:00,75.9,67.4,29.76,North,355,0.0,1.0,75,0.00,,,0.00,Wunderground v.1.15,2013-06-15 22:54:00,
2013-06-15 17:57:00,75.9,68.2,29.76,East,101,0.0,1.0,77,0.00,,,0.00,Wunderground v.1.15,2013-06-15 22:57:00,
2013-06-15 17:59:00,75.8,68.1,29.76,SSE,148,0.0,2.0,77,0.00,,,0.00,Wunderground v.1.15,2013-06-15 22:59:00,
2013-06-15 18:00:00,76.0,67.9,29.76,SSE,157,0.0,7.0,76,0.00,,,-99.99,WeatherLink 5.9.3,2013-06-15 23:00:00,
2013-06-15 18:01:00,75.8,67.7,29.76,SW,230,0.0,2.0,76,0.00,,,0.00,Wunderground v.1.15,2013-06-15 23:01:00,
2013-06-15 18:02:00,75.7,67.6,29.76,SW,227,2.0,2.0,76,0.00,,,0.00,Wunderground v.1.15,2013-06-15 23:02:00,
2013-06-15 18:04:00,75.7,68.0,29.76,SSW,193,0.0,2.0,77,0.00,,,0.00,Wunderground v.1.15,2013-06-15 23:04:00,
2013-06-15 18:06:00,75.7,68.0,29.76,SSW,193,0.0,2.0,77,0.00,,,0.00,Wunderground v.1.15,2013-06-15 23:06:00,
2013-06-15 18:07:00,75.7,68.0,29.76,SW,219,0.0,3.0,77,0.00,,,0.00,Wunderground v.1.15,2013-06-15 23:07:00,
2013-06-15 18:09:00,75.7,68.0,29.76,SW,217,0.0,3.0,77,0.00,,,0.00,Wunderground v.1.15,2013-06-15 23:09:00,
2013-06-15 18:10:00,75.7,68.0,29.75,SW,217,0.0,3.0,77,0.00,,,0.00,Wunderground v.1.15,2013-06-15 23:10:00,
2013-06-15 18:13:00,75.7,68.0,29.75,SW,216,0.0,0.0,77,0.00,,,0.00,Wunderground v.1.15,2013-06-15 23:13:00,
2013-06-15 18:14:00,75.7,68.0,29.75,SW,220,0.0,0.0,77,0.00,,,0.00,Wunderground v.1.15,2013-06-15 23:14:00,
2013-06-15 18:15:00,75.7,68.0,29.75,SW,220,0.0,0.0,77,0.00,,,0.00,Wunderground v.1.15,2013-06-15 23:15:00,
2013-06-15 18:17:00,75.7,68.0,29.75,SW,220,0.0,0.0,77,0.00,,,0.00,Wunderground v.1.15,2013-06-15 23:17:00,
2013-06-15 18:19:00,75.7,68.0,29.75,South,179,0.0,2.0,77,0.00,,,0.00,Wunderground v.1.15,2013-06-15 23:19:00,
2013-06-15 18:20:00,75.6,67.9,29.76,South,179,0.0,2.0,77,0.00,,,0.00,Wunderground v.1.15,2013-06-15 23:20:00,
2013-06-15 18:21:00,75.6,67.9,29.76,South,186,0.0,2.0,77,0.00,,,0.00,Wunderground v.1.15,2013-06-15 23:21:00,
2013-06-15 18:22:00,75.5,67.8,29.76,South,174,0.0,0.0,77,0.00,,,0.00,Wunderground v.1.15,2013-06-15 23:22:00,
2013-06-15 18:26:00,75.4,67.7,29.76,South,175,0.0,0.0,77,0.00,,,0.00,Wunderground v.1.15,2013-06-15 23:26:00,
2013-06-15 18:27:00,75.3,67.6,29.76,NW,326,1.0,1.0,77,0.00,,,0.00,Wunderground v.1.15,2013-06-15 23:27:00,
2013-06-15 18:28:00,75.3,67.6,29.76,NW,326,0.0,1.0,77,0.00,,,0.00,Wunderground v.1.15,2013-06-15 23:28:00,
2013-06-15 18:32:00,75.1,67.8,29.76,NW,326,0.0,0.0,78,0.00,,,0.00,Wunderground v.1.15,2013-06-15 23:32:00,
2013-06-15 18:34:00,75.0,67.7,29.76,NW,315,1.0,2.0,78,0.00,,,0.00,Wunderground v.1.15,2013-06-15 23:34:00,
2013-06-15 18:35:00,75.0,67.7,29.76,NW,315,0.0,2.0,78,0.00,,,0.00,Wunderground v.1.15,2013-06-15 23:35:00,
2013-06-15 18:37:00,74.9,67.9,29.76,NW,315,0.0,2.0,79,0.00,,,0.00,Wunderground v.1.15,2013-06-15 23:37:00,
2013-06-15 18:38:00,74.8,67.8,29.76,NW,315,0.0,2.0,79,0.00,,,0.00,Wunderground v.1.15,2013-06-15 23:38:00,
2013-06-15 18:41:00,74.7,67.8,29.76,NW,315,0.0,2.0,79,0.00,,,0.00,Wunderground v.1.15,2013-06-15 23:41:00,
2013-06-15 18:43:00,74.7,67.8,29.75,NW,315,1.0,1.0,79,0.00,,,0.00,Wunderground v.1.15,2013-06-15 23:43:00,
2013-06-15 18:44:00,74.6,67.7,29.75,NW,315,2.0,2.0,79,0.00,,,0.00,Wunderground v.1.15,2013-06-15 23:44:00,
2013-06-15 18:47:00,74.5,67.6,29.75,NW,312,1.0,4.0,79,0.00,,,0.00,Wunderground v.1.15,2013-06-15 23:47:00,
2013-06-15 18:48:00,74.5,67.6,29.76,NW,312,0.0,4.0,79,0.00,,,0.00,Wunderground v.1.15,2013-06-15 23:48:00,
2013-06-15 18:49:00,74.5,67.6,29.76,NW,312,0.0,4.0,79,0.00,,,0.00,Wunderground v.1.15,2013-06-15 23:49:00,
2013-06-15 18:50:00,74.4,67.5,29.76,NW,312,0.0,4.0,79,0.00,,,0.00,Wunderground v.1.15,2013-06-15 23:50:00,
2013-06-15 18:54:00,74.2,67.3,29.76,NW,312,0.0,0.0,79,0.00,,,0.00,Wunderground v.1.15,2013-06-15 23:54:00,
2013-06-15 18:55:00,74.2,67.3,29.76,NW,312,0.0,0.0,79,0.00,,,0.00,Wunderground v.1.15,2013-06-15 23:55:00,
2013-06-15 18:56:00,74.2,67.6,29.76,NW,312,0.0,0.0,80,0.00,,,0.00,Wunderground v.1.15,2013-06-15 23:56:00,
2013-06-15 18:59:00,74.1,67.5,29.76,NW,312,0.0,0.0,80,0.00,,,0.00,Wunderground v.1.15,2013-06-15 23:59:00,
2013-06-15 19:00:00,74.0,67.4,29.76,NW,312,0.0,0.0,80,0.00,,,0.00,Wunderground v.1.15,2013-06-16 00:00:00,
2013-06-15 19:01:00,74.0,67.4,29.76,NW,312,0.0,0.0,80,0.00,,,0.00,Wunderground v.1.15,2013-06-16 00:01:00,
2013-06-15 19:02:00,73.9,67.3,29.76,NW,312,0.0,0.0,80,0.00,,,0.00,Wunderground v.1.15,2013-06-16 00:02:00,
2013-06-15 19:06:00,73.8,67.2,29.75,SE,140,0.0,2.0,80,0.00,,,0.00,Wunderground v.1.15,2013-06-16 00:06:00,
2013-06-15 19:07:00,73.8,67.6,29.75,SE,140,0.0,2.0,81,0.00,,,0.00,Wunderground v.1.15,2013-06-16 00:07:00,
2013-06-15 19:10:00,73.6,67.4,29.75,SE,140,0.0,2.0,81,0.00,,,0.00,Wunderground v.1.15,2013-06-16 00:10:00,
2013-06-15 19:11:00,73.6,67.4,29.75,SE,140,0.0,0.0,81,0.00,,,0.00,Wunderground v.1.15,2013-06-16 00:11:00,
2013-06-15 19:12:00,73.5,67.3,29.75,SE,140,0.0,0.0,81,0.00,,,0.00,Wunderground v.1.15,2013-06-16 00:12:00,
2013-06-15 19:15:00,73.4,67.6,29.75,SE,140,0.0,0.0,82,0.00,,,0.00,Wunderground v.1.15,2013-06-16 00:15:00,
2013-06-15 19:16:00,73.4,67.6,29.75,SE,140,0.0,1.0,82,0.00,,,0.00,Wunderground v.1.15,2013-06-16 00:16:00,
2013-06-15 19:17:00,73.3,67.5,29.75,SE,140,0.0,1.0,82,0.00,,,0.00,Wunderground v.1.15,2013-06-16 00:17:00,
2013-06-15 19:18:00,73.3,67.5,29.75,SE,140,0.0,1.0,82,0.00,,,0.00,Wunderground v.1.15,2013-06-16 00:18:00,
2013-06-15 19:21:00,73.2,67.4,29.75,SE,140,0.0,1.0,82,0.00,,,0.00,Wunderground v.1.15,2013-06-16 00:21:00,
2013-06-15 19:24:00,73.1,67.3,29.74,SE,140,0.0,0.0,82,0.00,,,0.00,Wunderground v.1.15,2013-06-16 00:24:00,
2013-06-15 19:26:00,73.0,67.2,29.74,SE,141,0.0,0.0,82,0.00,,,0.00,Wunderground v.1.15,2013-06-16 00:26:00,
2013-06-15 19:28:00,73.0,67.5,29.74,SE,141,0.0,0.0,83,0.00,,,0.00,Wunderground v.1.15,2013-06-16 00:28:00,
2013-06-15 19:31:00,72.9,67.4,29.74,SE,141,0.0,0.0,83,0.00,,,0.00,Wunderground v.1.15,2013-06-16 00:31:00,
2013-06-15 19:32:00,72.8,67.3,29.74,SE,141,0.0,0.0,83,0.00,,,0.00,Wunderground v.1.15,2013-06-16 00:32:00,
2013-06-15 19:33:00,72.8,67.3,29.74,SE,141,0.0,0.0,83,0.00,,,0.00,Wunderground v.1.15,2013-06-16 00:33:00,
2013-06-15 19:34:00,72.8,67.3,29.74,SE,141,0.0,0.0,83,0.00,,,0.00,Wunderground v.1.15,2013-06-16 00:34:00,
2013-06-15 19:35:00,72.8,67.3,29.74,SE,141,0.0,0.0,83,0.00,,,0.00,Wunderground v.1.15,2013-06-16 00:35:00,
2013-06-15 19:36:00,72.7,67.2,29.74,SE,141,0.0,0.0,83,0.00,,,0.00,Wunderground v.1.15,2013-06-16 00:36:00,
2013-06-15 19:37:00,72.7,67.2,29.74,SE,141,0.0,0.0,83,0.00,,,0.00,Wunderground v.1.15,2013-06-16 00:37:00,
2013-06-15 19:39:00,72.6,67.1,29.74,SE,141,0.0,0.0,83,0.00,,,0.00,Wunderground v.1.15,2013-06-16 00:39:00,
2013-06-15 19:41:00,72.5,67.0,29.73,SE,141,0.0,0.0,83,0.00,,,0.00,Wunderground v.1.15,2013-06-16 00:41:00,
2013-06-15 19:43:00,72.5,67.0,29.73,SE,141,0.0,0.0,83,0.00,,,0.00,Wunderground v.1.15,2013-06-16 00:43:00,
2013-06-15 19:46:00,72.3,66.8,29.74,SE,141,0.0,0.0,83,0.00,,,0.00,Wunderground v.1.15,2013-06-16 00:46:00,
2013-06-15 19:47:00,72.3,67.2,29.74,SE,141,0.0,0.0,84,0.00,,,0.00,Wunderground v.1.15,2013-06-16 00:47:00,
2013-06-15 19:48:00,72.3,67.2,29.74,SE,141,0.0,0.0,84,0.00,,,0.00,Wunderground v.1.15,2013-06-16 00:48:00,
2013-06-15 19:49:00,72.2,67.1,29.74,SE,141,0.0,0.0,84,0.00,,,0.00,Wunderground v.1.15,2013-06-16 00:49:00,
2013-06-15 19:51:00,72.2,67.1,29.74,SE,141,0.0,0.0,84,0.00,,,0.00,Wunderground v.1.15,2013-06-16 00:51:00,
2013-06-15 19:52:00,72.1,67.0,29.74,SE,141,0.0,0.0,84,0.00,,,0.00,Wunderground v.1.15,2013-06-16 00:52:00,
2013-06-15 19:56:00,72.0,66.9,29.74,SE,140,0.0,0.0,84,0.00,,,0.00,Wunderground v.1.15,2013-06-16 00:56:00,
2013-06-15 19:58:00,72.0,66.9,29.73,SE,143,0.0,1.0,84,0.00,,,0.00,Wunderground v.1.15,2013-06-16 00:58:00,
2013-06-15 19:59:00,71.9,66.8,29.73,SE,143,0.0,1.0,84,0.00,,,0.00,Wunderground v.1.15,2013-06-16 00:59:00,
2013-06-15 20:00:00,71.9,66.8,29.73,SE,143,0.0,1.0,84,0.00,,,0.00,Wunderground v.1.15,2013-06-16 01:00:00,
2013-06-15 20:02:00,71.8,67.0,29.73,SE,143,0.0,0.0,85,0.00,,,0.00,Wunderground v.1.15,2013-06-16 01:02:00,
2013-06-15 20:03:00,71.8,67.0,29.73,SE,143,0.0,0.0,85,0.00,,,0.00,Wunderground v.1.15,2013-06-16 01:03:00,
2013-06-15 20:06:00,71.7,66.9,29.72,SE,143,0.0,0.0,85,0.00,,,0.00,Wunderground v.1.15,2013-06-16 01:06:00,
2013-06-15 20:07:00,71.6,66.8,29.72,SE,143,0.0,0.0,85,0.00,,,0.00,Wunderground v.1.15,2013-06-16 01:07:00,
2013-06-15 20:08:00,71.6,66.8,29.72,SE,143,0.0,0.0,85,0.00,,,0.00,Wunderground v.1.15,2013-06-16 01:08:00,
2013-06-15 20:11:00,71.5,66.8,29.72,SE,143,0.0,0.0,85,0.00,,,0.00,Wunderground v.1.15,2013-06-16 01:11:00,
2013-06-15 20:13:00,71.5,66.8,29.72,SE,143,0.0,0.0,85,0.00,,,0.00,Wunderground v.1.15,2013-06-16 01:13:00,
2013-06-15 20:14:00,71.4,66.7,29.71,SE,143,0.0,0.0,85,0.00,,,0.00,Wunderground v.1.15,2013-06-16 01:14:00,
2013-06-15 20:17:00,71.4,66.7,29.71,SE,143,0.0,0.0,85,0.00,,,0.00,Wunderground v.1.15,2013-06-16 01:17:00,
2013-06-15 20:18:00,71.4,66.7,29.71,SE,143,0.0,0.0,85,0.00,,,0.00,Wunderground v.1.15,2013-06-16 01:18:00,
2013-06-15 20:21:00,71.3,66.6,29.71,SE,143,0.0,0.0,85,0.00,,,0.00,Wunderground v.1.15,2013-06-16 01:21:00,
2013-06-15 20:22:00,71.3,66.6,29.71,SE,143,0.0,0.0,85,0.00,,,0.00,Wunderground v.1.15,2013-06-16 01:22:00,
2013-06-15 20:23:00,71.3,66.6,29.72,SE,143,0.0,0.0,85,0.00,,,0.00,Wunderground v.1.15,2013-06-16 01:23:00,
2013-06-15 20:24:00,71.3,66.6,29.72,SE,143,0.0,0.0,85,0.00,,,0.00,Wunderground v.1.15,2013-06-16 01:24:00,
2013-06-15 20:26:00,71.2,66.8,29.72,SE,143,0.0,0.0,86,0.00,,,0.00,Wunderground v.1.15,2013-06-16 01:26:00,
2013-06-15 20:27:00,71.2,66.8,29.72,SE,143,0.0,0.0,86,0.00,,,0.00,Wunderground v.1.15,2013-06-16 01:27:00,
2013-06-15 20:28:00,71.2,66.8,29.72,SE,143,0.0,0.0,86,0.00,,,0.00,Wunderground v.1.15,2013-06-16 01:28:00,
2013-06-15 20:30:00,71.2,66.8,29.72,SE,143,0.0,0.0,86,0.00,,,0.00,Wunderground v.1.15,2013-06-16 01:30:00,
2013-06-15 20:32:00,71.2,66.8,29.72,SE,143,0.0,0.0,86,0.00,,,0.00,Wunderground v.1.15,2013-06-16 01:32:00,
2013-06-15 20:33:00,71.2,66.8,29.72,SE,143,0.0,0.0,86,0.00,,,0.00,Wunderground v.1.15,2013-06-16 01:33:00,
2013-06-15 20:37:00,71.2,66.8,29.73,SE,143,0.0,0.0,86,0.00,,,0.00,Wunderground v.1.15,2013-06-16 01:37:00,
2013-06-15 20:39:00,71.1,66.7,29.72,SE,143,0.0,0.0,86,0.00,,,0.00,Wunderground v.1.15,2013-06-16 01:39:00,
2013-06-15 20:43:00,71.0,66.9,29.72,SE,143,0.0,0.0,87,0.00,,,0.00,Wunderground v.1.15,2013-06-16 01:43:00,
2013-06-15 20:46:00,70.9,66.8,29.72,SE,143,0.0,0.0,87,0.00,,,0.00,Wunderground v.1.15,2013-06-16 01:46:00,
2013-06-15 20:48:00,70.9,66.8,29.71,SE,143,0.0,0.0,87,0.00,,,0.00,Wunderground v.1.15,2013-06-16 01:48:00,
2013-06-15 20:49:00,70.9,66.8,29.72,SE,143,0.0,0.0,87,0.00,,,0.00,Wunderground v.1.15,2013-06-16 01:49:00,
2013-06-15 20:51:00,70.9,66.8,29.72,SE,143,0.0,0.0,87,0.00,,,0.00,Wunderground v.1.15,2013-06-16 01:51:00,
2013-06-15 20:52:00,70.8,66.7,29.72,SE,143,0.0,0.0,87,0.00,,,0.00,Wunderground v.1.15,2013-06-16 01:52:00,
2013-06-15 20:54:00,70.8,67.4,29.72,SE,143,0.0,0.0,89,0.68,,,0.02,Wunderground v.1.15,2013-06-16 01:54:00,
2013-06-15 20:56:00,70.8,67.4,29.72,SE,143,0.0,0.0,89,0.33,,,0.03,Wunderground v.1.15,2013-06-16 01:56:00,
2013-06-15 20:57:00,70.8,67.4,29.72,SE,143,0.0,0.0,89,0.33,,,0.03,Wunderground v.1.15,2013-06-16 01:57:00,
2013-06-15 20:58:00,70.7,67.6,29.72,SE,143,0.0,0.0,90,0.32,,,0.04,Wunderground v.1.15,2013-06-16 01:58:00,
2013-06-15 21:01:00,70.5,67.4,29.73,SE,143,0.0,0.0,90,0.21,,,0.05,Wunderground v.1.15,2013-06-16 02:01:00,
2013-06-15 21:03:00,70.4,67.6,29.73,SE,143,0.0,0.0,91,0.30,,,0.06,Wunderground v.1.15,2013-06-16 02:03:00,
2013-06-15 21:04:00,70.3,67.5,29.73,SE,143,0.0,0.0,91,0.30,,,0.06,Wunderground v.1.15,2013-06-16 02:04:00,
2013-06-15 21:07:00,70.3,67.5,29.73,SE,143,0.0,0.0,91,0.19,,,0.07,Wunderground v.1.15,2013-06-16 02:07:00,
2013-06-15 21:09:00,70.2,67.4,29.73,SE,143,0.0,0.0,91,0.32,,,0.08,Wunderground v.1.15,2013-06-16 02:09:00,
2013-06-15 21:10:00,70.1,67.3,29.73,SE,143,0.0,0.0,91,0.24,,,0.08,Wunderground v.1.15,2013-06-16 02:10:00,
2013-06-15 21:12:00,70.0,67.6,29.73,SE,143,0.0,0.0,92,0.20,,,0.09,Wunderground v.1.15,2013-06-16 02:12:00,
2013-06-15 21:13:00,70.0,67.6,29.74,SE,143,0.0,1.0,92,0.33,,,0.10,Wunderground v.1.15,2013-06-16 02:13:00,
2013-06-15 21:15:00,69.9,67.5,29.74,SE,142,0.0,1.0,92,0.22,,,0.11,Wunderground v.1.15,2013-06-16 02:15:00,
2013-06-15 21:16:00,69.8,67.7,29.75,WNW,298,4.0,4.0,93,0.22,,,0.11,Wunderground v.1.15,2013-06-16 02:16:00,
2013-06-15 21:18:00,69.6,67.2,29.75,West,269,13.0,19.0,92,0.50,,,0.13,Wunderground v.1.15,2013-06-16 02:18:00,
2013-06-15 21:19:00,69.2,66.1,29.75,NW,308,9.0,19.0,90,0.71,,,0.14,Wunderground v.1.15,2013-06-16 02:19:00,
2013-06-15 21:21:00,68.3,64.9,29.76,NW,320,15.0,19.0,89,1.13,,,0.17,Wunderground v.1.15,2013-06-16 02:21:00,
2013-06-15 21:22:00,67.5,64.1,29.76,WNW,301,7.0,7.0,89,0.97,,,0.21,Wunderground v.1.15,2013-06-16 02:22:00,
2013-06-15 21:23:00,67.1,63.7,29.76,WNW,303,14.0,23.0,89,0.70,,,0.22,Wunderground v.1.15,2013-06-16 02:23:00,
2013-06-15 21:24:00,66.8,63.5,29.77,WNW,298,13.0,23.0,89,0.64,,,0.23,Wunderground v.1.15,2013-06-16 02:24:00,
2013-06-15 21:26:00,66.0,63.3,29.78,NW,312,9.0,23.0,91,2.56,,,0.30,Wunderground v.1.15,2013-06-16 02:26:00,
2013-06-15 21:28:00,65.9,63.8,29.78,WNW,299,7.0,23.0,93,3.22,,,0.40,Wunderground v.1.15,2013-06-16 02:28:00,
2013-06-15 21:30:00,66.0,64.2,29.78,NNW,348,15.0,23.0,94,2.88,,,0.44,Wunderground v.1.15,2013-06-16 02:30:00,
2013-06-15 21:31:00,66.0,64.2,29.78,NNE,23,11.0,23.0,94,3.45,,,0.47,Wunderground v.1.15,2013-06-16 02:31:00,
2013-06-15 21:33:00,65.9,64.1,29.79,NW,315,4.0,12.0,94,1.73,,,0.51,Wunderground v.1.15,2013-06-16 02:33:00,
2013-06-15 21:34:00,65.8,64.0,29.78,NNW,335,7.0,13.0,94,0.40,,,0.51,Wunderground v.1.15,2013-06-16 02:34:00,
2013-06-15 21:35:00,65.8,64.0,29.79,NNE,33,11.0,13.0,94,0.35,,,0.52,Wunderground v.1.15,2013-06-16 02:35:00,
2013-06-15 21:38:00,65.6,63.8,29.79,WNW,301,4.0,13.0,94,0.24,,,0.53,Wunderground v.1.15,2013-06-16 02:38:00,
2013-06-15 21:39:00,65.5,63.7,29.79,WSW,248,6.0,13.0,94,0.17,,,0.54,Wunderground v.1.15,2013-06-16 02:39:00,
2013-06-15 21:41:00,65.3,63.5,29.79,WNW,286,4.0,7.0,94,0.45,,,0.55,Wunderground v.1.15,2013-06-16 02:41:00,
2013-06-15 21:42:00,65.2,63.4,29.79,NW,321,10.0,10.0,94,0.32,,,0.55,Wunderground v.1.15,2013-06-16 02:42:00,
2013-06-15 21:44:00,65.1,63.3,29.79,WNW,301,5.0,10.0,94,0.36,,,0.57,Wunderground v.1.15,2013-06-16 02:44:00,
2013-06-15 21:45:00,65.1,63.3,29.79,NNW,333,4.0,10.0,94,0.36,,,0.57,Wunderground v.1.15,2013-06-16 02:45:00,
2013-06-15 21:46:00,65.0,63.2,29.79,NW,319,0.0,10.0,94,0.22,,,0.57,Wunderground v.1.15,2013-06-16 02:46:00,
2013-06-15 21:48:00,65.0,63.2,29.79,NNW,341,0.0,10.0,94,0.15,,,0.58,Wunderground v.1.15,2013-06-16 02:48:00,
2013-06-15 21:49:00,64.9,63.1,29.80,NW,306,3.0,10.0,94,0.15,,,0.58,Wunderground v.1.15,2013-06-16 02:49:00,
2013-06-15 21:52:00,64.9,63.4,29.80,NNW,348,7.0,7.0,95,0.25,,,0.60,Wunderground v.1.15,2013-06-16 02:52:00,
2013-06-15 21:53:00,65.0,63.5,29.80,NNW,333,7.0,7.0,95,0.25,,,0.60,Wunderground v.1.15,2013-06-16 02:53:00,
2013-06-15 21:54:00,64.9,63.4,29.80,NNW,333,6.0,7.0,95,0.47,,,0.61,Wunderground v.1.15,2013-06-16 02:54:00,
2013-06-15 21:55:00,64.9,63.4,29.80,West,281,4.0,7.0,95,0.40,,,0.61,Wunderground v.1.15,2013-06-16 02:55:00,
2013-06-15 21:56:00,64.9,63.4,29.80,NNW,344,1.0,7.0,95,0.24,,,0.61,Wunderground v.1.15,2013-06-16 02:56:00,
2013-06-15 21:58:00,64.9,63.4,29.80,NW,322,2.0,7.0,95,0.34,,,0.63,Wunderground v.1.15,2013-06-16 02:58:00,
2013-06-15 22:00:00,64.9,63.4,29.80,NNW,334,4.0,7.0,95,0.23,,,0.63,Wunderground v.1.15,2013-06-16 03:00:00,
2013-06-15 22:01:00,64.9,63.4,29.80,WNW,299,1.0,7.0,95,0.23,,,0.64,Wunderground v.1.15,2013-06-16 03:01:00,
2013-06-15 22:02:00,64.8,63.3,29.80,NNE,30,2.0,4.0,95,0.36,,,0.65,Wunderground v.1.15,2013-06-16 03:02:00,
2013-06-15 22:03:00,64.8,63.3,29.80,NNE,25,0.0,4.0,95,0.36,,,0.65,Wunderground v.1.15,2013-06-16 03:03:00,
2013-06-15 22:06:00,64.7,63.2,29.80,NNE,22,3.0,4.0,95,0.38,,,0.66,Wunderground v.1.15,2013-06-16 03:06:00,
2013-06-15 22:07:00,64.7,63.2,29.80,NNE,22,1.0,4.0,95,0.38,,,0.67,Wunderground v.1.15,2013-06-16 03:07:00,
2013-06-15 22:08:00,64.7,63.2,29.80,NNE,15,3.0,4.0,95,0.38,,,0.67,Wunderground v.1.15,2013-06-16 03:08:00,
2013-06-15 22:09:00,64.6,63.1,29.80,NNW,345,1.0,4.0,95,0.20,,,0.68,Wunderground v.1.15,2013-06-16 03:09:00,
2013-06-15 22:13:00,64.5,63.0,29.79,North,355,0.0,2.0,95,0.27,,,0.69,Wunderground v.1.15,2013-06-16 03:13:00,
2013-06-15 22:15:00,64.4,62.9,29.79,North,355,0.0,2.0,95,0.24,,,0.70,Wunderground v.1.15,2013-06-16 03:15:00,
2013-06-15 22:16:00,64.4,62.9,29.79,North,355,0.0,2.0,95,0.31,,,0.71,Wunderground v.1.15,2013-06-16 03:16:00,
2013-06-15 22:18:00,64.3,62.8,29.78,North,355,0.0,2.0,95,0.20,,,0.71,Wunderground v.1.15,2013-06-16 03:18:00,
2013-06-15 22:19:00,64.3,62.8,29.78,North,355,0.0,2.0,95,0.20,,,0.72,Wunderground v.1.15,2013-06-16 03:19:00,
2013-06-15 22:21:00,64.3,62.8,29.78,North,355,0.0,0.0,95,0.28,,,0.73,Wunderground v.1.15,2013-06-16 03:21:00,
2013-06-15 22:22:00,64.3,62.8,29.78,North,355,0.0,0.0,95,0.28,,,0.73,Wunderground v.1.15,2013-06-16 03:22:00,
2013-06-15 22:23:00,64.3,62.8,29.78,North,355,0.0,0.0,95,0.19,,,0.73,Wunderground v.1.15,2013-06-16 03:23:00,
2013-06-15 22:26:00,64.2,62.7,29.78,North,355,0.0,0.0,95,0.24,,,0.75,Wunderground v.1.15,2013-06-16 03:26:00,
2013-06-15 22:27:00,64.2,62.7,29.78,North,355,0.0,0.0,95,0.24,,,0.75,Wunderground v.1.15,2013-06-16 03:27:00,
2013-06-15 22:28:00,64.2,62.7,29.77,North,355,0.0,0.0,95,0.24,,,0.75,Wunderground v.1.15,2013-06-16 03:28:00,
2013-06-15 22:30:00,64.2,62.7,29.77,North,355,0.0,0.0,95,0.16,,,0.75,Wunderground v.1.15,2013-06-16 03:30:00,
2013-06-15 22:31:00,64.2,62.7,29.77,North,355,0.0,0.0,95,0.15,,,0.76,Wunderground v.1.15,2013-06-16 03:31:00,
2013-06-15 22:33:00,64.1,62.6,29.77,North,355,0.0,0.0,95,0.25,,,0.77,Wunderground v.1.15,2013-06-16 03:33:00,
2013-06-15 22:36:00,64.1,62.6,29.76,North,355,0.0,0.0,95,0.17,,,0.77,Wunderground v.1.15,2013-06-16 03:36:00,
2013-06-15 22:39:00,64.0,62.5,29.76,North,355,0.0,0.0,95,0.13,,,0.78,Wunderground v.1.15,2013-06-16 03:39:00,
2013-06-15 22:41:00,64.0,62.5,29.76,North,355,0.0,0.0,95,0.20,,,0.79,Wunderground v.1.15,2013-06-16 03:41:00,
2013-06-15 22:43:00,64.0,62.5,29.76,North,355,0.0,0.0,95,0.20,,,0.79,Wunderground v.1.15,2013-06-16 03:43:00,
2013-06-15 22:46:00,64.0,62.5,29.76,North,355,0.0,0.0,95,0.11,,,0.79,Wunderground v.1.15,2013-06-16 03:46:00,
2013-06-15 22:47:00,64.0,62.5,29.76,North,355,0.0,0.0,95,0.08,,,0.79,Wunderground v.1.15,2013-06-16 03:47:00,
2013-06-15 22:48:00,64.0,62.5,29.76,North,355,0.0,0.0,95,0.08,,,0.79,Wunderground v.1.15,2013-06-16 03:48:00,
2013-06-15 22:51:00,63.9,62.4,29.76,North,355,0.0,0.0,95,0.06,,,0.79,Wunderground v.1.15,2013-06-16 03:51:00,
2013-06-15 22:52:00,63.9,62.4,29.76,North,355,0.0,0.0,95,0.05,,,0.79,Wunderground v.1.15,2013-06-16 03:52:00,
2013-06-15 22:54:00,63.9,62.4,29.76,North,355,0.0,0.0,95,0.04,,,0.79,Wunderground v.1.15,2013-06-16 03:54:00,
2013-06-15 22:55:00,63.9,62.4,29.75,North,355,0.0,0.0,95,0.04,,,0.79,Wunderground v.1.15,2013-06-16 03:55:00,
2013-06-15 22:56:00,63.8,62.3,29.75,North,355,0.0,0.0,95,0.04,,,0.79,Wunderground v.1.15,2013-06-16 03:56:00,
2013-06-15 22:58:00,63.8,62.3,29.75,North,355,0.0,0.0,95,0.00,,,0.79,Wunderground v.1.15,2013-06-16 03:58:00,
2013-06-15 22:59:00,63.8,62.3,29.75,North,355,0.0,0.0,95,0.00,,,0.79,Wunderground v.1.15,2013-06-16 03:59:00,
2013-06-15 23:00:00,64.2,62.7,29.75,NNW,337,0.0,4.0,95,0.14,,,-99.99,WeatherLink 5.9.3,2013-06-16 04:00:00,
2013-06-15 23:01:00,63.8,62.3,29.75,North,355,0.0,0.0,95,0.00,,,0.79,Wunderground v.1.15,2013-06-16 04:01:00,
2013-06-15 23:02:00,63.8,62.3,29.75,North,355,0.0,0.0,95,0.00,,,0.79,Wunderground v.1.15,2013-06-16 04:02:00,
2013-06-15 23:03:00,63.7,62.2,29.74,North,355,0.0,0.0,95,0.00,,,0.79,Wunderground v.1.15,2013-06-16 04:03:00,
2013-06-15 23:06:00,63.7,62.2,29.74,North,355,0.0,0.0,95,0.00,,,0.79,Wunderground v.1.15,2013-06-16 04:06:00,
2013-06-15 23:08:00,63.7,62.5,29.74,North,355,0.0,0.0,96,0.00,,,0.79,Wunderground v.1.15,2013-06-16 04:08:00,
2013-06-15 23:11:00,63.6,62.4,29.74,North,355,0.0,0.0,96,0.00,,,0.79,Wunderground v.1.15,2013-06-16 04:11:00,
2013-06-15 23:12:00,63.6,62.4,29.74,North,355,0.0,0.0,96,0.00,,,0.79,Wunderground v.1.15,2013-06-16 04:12:00,
2013-06-15 23:13:00,63.5,62.3,29.74,North,355,0.0,0.0,96,0.00,,,0.79,Wunderground v.1.15,2013-06-16 04:13:00,
2013-06-15 23:14:00,63.5,62.3,29.74,North,355,0.0,0.0,96,0.00,,,0.79,Wunderground v.1.15,2013-06-16 04:14:00,
2013-06-15 23:17:00,63.5,62.3,29.74,North,355,0.0,0.0,96,0.00,,,0.79,Wunderground v.1.15,2013-06-16 04:17:00,
2013-06-15 23:18:00,63.5,62.3,29.74,North,355,0.0,0.0,96,0.00,,,0.79,Wunderground v.1.15,2013-06-16 04:18:00,
2013-06-15 23:19:00,63.5,62.3,29.73,North,355,0.0,0.0,96,0.00,,,0.79,Wunderground v.1.15,2013-06-16 04:19:00,
2013-06-15 23:23:00,63.4,62.2,29.73,North,355,0.0,0.0,96,0.00,,,0.79,Wunderground v.1.15,2013-06-16 04:23:00,
2013-06-15 23:24:00,63.4,62.2,29.73,North,355,0.0,0.0,96,0.00,,,0.79,Wunderground v.1.15,2013-06-16 04:24:00,
2013-06-15 23:27:00,63.4,62.2,29.73,North,355,0.0,1.0,96,0.00,,,0.79,Wunderground v.1.15,2013-06-16 04:27:00,
2013-06-15 23:28:00,63.4,62.2,29.74,North,355,0.0,1.0,96,0.00,,,0.79,Wunderground v.1.15,2013-06-16 04:28:00,
2013-06-15 23:29:00,63.4,62.2,29.73,North,355,0.0,1.0,96,0.00,,,0.79,Wunderground v.1.15,2013-06-16 04:29:00,
2013-06-15 23:31:00,63.4,62.2,29.73,North,355,0.0,0.0,96,0.00,,,0.79,Wunderground v.1.15,2013-06-16 04:31:00,
2013-06-15 23:34:00,63.4,62.2,29.73,North,355,0.0,0.0,96,0.00,,,0.79,Wunderground v.1.15,2013-06-16 04:34:00,
2013-06-15 23:35:00,63.4,62.2,29.73,North,355,0.0,0.0,96,0.00,,,0.79,Wunderground v.1.15,2013-06-16 04:35:00,
2013-06-15 23:37:00,63.4,62.2,29.73,North,355,0.0,0.0,96,0.00,,,0.79,Wunderground v.1.15,2013-06-16 04:37:00,
2013-06-15 23:40:00,63.3,62.1,29.73,North,355,0.0,0.0,96,0.00,,,0.79,Wunderground v.1.15,2013-06-16 04:40:00,
2013-06-15 23:41:00,63.3,62.1,29.73,North,355,0.0,0.0,96,0.00,,,0.79,Wunderground v.1.15,2013-06-16 04:41:00,
2013-06-15 23:42:00,63.3,62.1,29.73,North,355,0.0,0.0,96,0.00,,,0.79,Wunderground v.1.15,2013-06-16 04:42:00,
2013-06-15 23:43:00,63.3,62.1,29.73,North,355,0.0,0.0,96,0.00,,,0.79,Wunderground v.1.15,2013-06-16 04:43:00,
2013-06-15 23:46:00,63.2,62.0,29.73,North,355,0.0,0.0,96,0.00,,,0.79,Wunderground v.1.15,2013-06-16 04:46:00,
2013-06-15 23:48:00,63.1,61.9,29.73,North,355,0.0,0.0,96,0.00,,,0.79,Wunderground v.1.15,2013-06-16 04:48:00,
2013-06-15 23:50:00,63.0,61.8,29.73,North,355,0.0,0.0,96,0.00,,,0.79,Wunderground v.1.15,2013-06-16 04:50:00,
2013-06-15 23:51:00,63.0,61.8,29.73,North,355,0.0,0.0,96,0.00,,,0.79,Wunderground v.1.15,2013-06-16 04:51:00,
2013-06-15 23:53:00,62.9,61.7,29.73,North,355,0.0,0.0,96,0.00,,,0.79,Wunderground v.1.15,2013-06-16 04:53:00,
2013-06-15 23:54:00,62.9,61.7,29.73,North,355,0.0,0.0,96,0.00,,,0.79,Wunderground v.1.15,2013-06-16 04:54:00,
2013-06-15 23:58:00,62.8,61.6,29.73,North,355,0.0,1.0,96,0.00,,,0.79,Wunderground v.1.15,2013-06-16 04:58:00,
2013-06-15 23:59:00,62.7,61.5,29.73,North,355,0.0,1.0,96,0.00,,,0.79,Wunderground v.1.15,2013-06-16 04:59:00,